Wetterdaten: Freitag, 03.07.2020
Datum Zeit Temp. Aussen Temp. o. S. Temp +5cm Feuchte Auss Luftdruck Regen Sonnenschein Regendauer Solar Windben Empfang
03.07.2020 00:00 14,2 C 12,8 C 12,2 C 90 % 1015,0 hPa 0,0 l/m 0 min 0 min 0 W/m 0,0 km/h (0 Bft) 100,00 %
03.07.2020 00:02 14,2 C 12,8 C 12,8 C 90 % 1015,0 hPa 0,0 l/m 0 min 0 min 0 W/m 0,0 km/h (0 Bft) 100,00 %
03.07.2020 00:04 14,2 C 12,8 C 12,8 C 90 % 1015,0 hPa 0,0 l/m 0 min 0 min 0 W/m 0,0 km/h (0 Bft) 100,00 %
03.07.2020 00:08 14,1 C 12,8 C 12,8 C 90 % 1015,0 hPa 0,0 l/m 0 min 0 min 0 W/m 0,0 km/h (0 Bft) 100,00 %
03.07.2020 00:10 14,1 C 12,8 C 12,2 C 90 % 1015,0 hPa 0,0 l/m 0 min 0 min 0 W/m 0,0 km/h (0 Bft) 100,00 %
03.07.2020 00:12 14,1 C 12,8 C 12,2 C 90 % 1015,0 hPa 0,0 l/m 0 min 0 min 0 W/m 0,0 km/h (0 Bft) 100,00 %
03.07.2020 00:14 14,1 C 12,2 C 12,2 C 90 % 1015,1 hPa 0,0 l/m 0 min 0 min 0 W/m 0,0 km/h (0 Bft) 100,00 %
03.07.2020 00:16 14,1 C 12,2 C 12,2 C 90 % 1015,1 hPa 0,0 l/m 0 min 0 min 0 W/m 0,0 km/h (0 Bft) 100,00 %
03.07.2020 00:18 14,1 C 12,2 C 12,2 C 90 % 1015,1 hPa 0,0 l/m 0 min 0 min 0 W/m 0,0 km/h (0 Bft) 100,00 %
03.07.2020 00:20 14,0 C 12,2 C 12,2 C 90 % 1015,1 hPa 0,0 l/m 0 min 0 min 0 W/m 0,0 km/h (0 Bft) 100,00 %
03.07.2020 00:22 14,0 C 12,2 C 12,2 C 91 % 1015,1 hPa 0,0 l/m 0 min 0 min 0 W/m 0,0 km/h (0 Bft) 97,87 %
03.07.2020 00:24 13,9 C 12,2 C 12,2 C 91 % 1015,1 hPa 0,0 l/m 0 min 0 min 0 W/m 0,0 km/h (0 Bft) 100,00 %
03.07.2020 00:26 13,9 C 12,2 C 12,2 C 91 % 1015,2 hPa 0,0 l/m 0 min 0 min 0 W/m 0,0 km/h (0 Bft) 97,87 %
03.07.2020 00:28 13,9 C 12,8 C 12,2 C 91 % 1015,2 hPa 0,0 l/m 0 min 0 min 0 W/m 0,0 km/h (0 Bft) 100,00 %
03.07.2020 00:30 13,9 C 12,2 C 12,2 C 91 % 1015,2 hPa 0,0 l/m 0 min 0 min 0 W/m 0,0 km/h (0 Bft) 100,00 %
03.07.2020 00:32 13,9 C 12,8 C 12,2 C 91 % 1015,2 hPa 0,0 l/m 0 min 0 min 0 W/m 0,0 km/h (0 Bft) 100,00 %
03.07.2020 00:34 13,9 C 12,8 C 12,2 C 91 % 1015,2 hPa 0,0 l/m 0 min 0 min 0 W/m 0,0 km/h (0 Bft) 100,00 %
03.07.2020 00:36 13,8 C 12,8 C 12,2 C 91 % 1015,3 hPa 0,0 l/m 0 min 0 min 0 W/m 0,0 km/h (0 Bft) 100,00 %
03.07.2020 00:38 13,8 C 12,8 C 12,8 C 91 % 1015,2 hPa 0,0 l/m 0 min 0 min 0 W/m 0,0 km/h (0 Bft) 100,00 %
03.07.2020 00:40 13,8 C 12,8 C 12,8 C 91 % 1015,2 hPa 0,0 l/m 0 min 0 min 0 W/m 0,0 km/h (0 Bft) 97,87 %
03.07.2020 00:42 13,8 C 12,8 C 12,8 C 91 % 1015,2 hPa 0,0 l/m 0 min 0 min 0 W/m 0,0 km/h (0 Bft) 100,00 %
03.07.2020 00:44 13,8 C 12,8 C 12,8 C 91 % 1015,2 hPa 0,0 l/m 0 min 0 min 0 W/m 0,0 km/h (0 Bft) 100,00 %
03.07.2020 00:46 13,8 C 12,8 C 12,8 C 91 % 1015,2 hPa 0,0 l/m 0 min 0 min 0 W/m 0,0 km/h (0 Bft) 97,87 %
03.07.2020 00:48 13,8 C 12,8 C 12,8 C 91 % 1015,2 hPa 0,0 l/m 0 min 0 min 0 W/m 0,0 km/h (0 Bft) 100,00 %
03.07.2020 00:50 13,8 C 12,8 C 12,8 C 91 % 1015,3 hPa 0,0 l/m 0 min 0 min 0 W/m 0,0 km/h (0 Bft) 100,00 %
03.07.2020 00:52 13,8 C 12,8 C 12,8 C 91 % 1015,3 hPa 0,0 l/m 0 min 0 min 0 W/m 0,0 km/h (0 Bft) 95,74 %
03.07.2020 00:54 13,8 C 12,8 C 12,8 C 91 % 1015,3 hPa 0,0 l/m 0 min 0 min 0 W/m 0,0 km/h (0 Bft) 93,48 %
03.07.2020 00:56 13,8 C 12,8 C 12,8 C 92 % 1015,3 hPa 0,0 l/m 0 min 0 min 0 W/m 0,0 km/h (0 Bft) 95,74 %
03.07.2020 00:58 13,8 C 12,8 C 12,8 C 92 % 1015,2 hPa 0,0 l/m 0 min 0 min 0 W/m 0,0 km/h (0 Bft) 93,62 %
03.07.2020 01:00 13,8 C 13,3 C 12,8 C 92 % 1015,2 hPa 0,0 l/m 0 min 0 min 0 W/m 3,2 km/h (1 Bft) 95,74 %
03.07.2020 01:02 13,8 C 12,8 C 12,8 C 92 % 1015,2 hPa 0,0 l/m 0 min 0 min 0 W/m 3,2 km/h (1 Bft) 95,74 %
03.07.2020 01:04 13,8 C 12,8 C 12,8 C 92 % 1015,3 hPa 0,0 l/m 0 min 0 min 0 W/m 0,0 km/h (0 Bft) 93,62 %
03.07.2020 01:06 13,8 C 12,8 C 12,8 C 92 % 1015,3 hPa 0,0 l/m 0 min 0 min 0 W/m 3,2 km/h (1 Bft) 93,48 %
03.07.2020 01:08 13,8 C 12,8 C 12,8 C 92 % 1015,3 hPa 0,0 l/m 0 min 0 min 0 W/m 6,4 km/h (2 Bft) 93,62 %
03.07.2020 01:10 13,8 C 12,8 C 12,8 C 92 % 1015,3 hPa 0,0 l/m 0 min 0 min 0 W/m 6,4 km/h (2 Bft) 95,74 %
03.07.2020 01:12 13,8 C 12,8 C 12,8 C 92 % 1015,4 hPa 0,0 l/m 0 min 0 min 0 W/m 0,0 km/h (0 Bft) 95,74 %
03.07.2020 01:14 13,8 C 12,8 C 12,8 C 92 % 1015,3 hPa 0,0 l/m 0 min 0 min 0 W/m 3,2 km/h (1 Bft) 93,62 %
03.07.2020 01:16 13,8 C 12,8 C 12,8 C 92 % 1015,3 hPa 0,0 l/m 0 min 0 min 0 W/m 0,0 km/h (0 Bft) 93,48 %
03.07.2020 01:18 13,8 C 12,8 C 12,8 C 92 % 1015,4 hPa 0,0 l/m 0 min 0 min 0 W/m 0,0 km/h (0 Bft) 95,74 %
03.07.2020 01:20 13,8 C 12,8 C 12,8 C 93 % 1015,4 hPa 0,0 l/m 0 min 0 min 0 W/m 0,0 km/h (0 Bft) 95,74 %
03.07.2020 01:22 13,8 C 12,8 C 12,8 C 93 % 1015,4 hPa 0,0 l/m 0 min 0 min 0 W/m 0,0 km/h (0 Bft) 93,62 %
03.07.2020 01:24 13,8 C 12,8 C 12,8 C 93 % 1015,3 hPa 0,0 l/m 0 min 0 min 0 W/m 6,4 km/h (2 Bft) 91,49 %
03.07.2020 01:26 13,8 C 12,8 C 12,8 C 93 % 1015,3 hPa 0,0 l/m 0 min 0 min 0 W/m 9,7 km/h (2 Bft) 91,49 %
03.07.2020 01:28 13,8 C 12,8 C 12,8 C 93 % 1015,3 hPa 0,0 l/m 0 min 0 min 0 W/m 6,4 km/h (2 Bft) 93,48 %
03.07.2020 01:30 13,8 C 12,8 C 12,8 C 93 % 1015,4 hPa 0,0 l/m 0 min 0 min 0 W/m 0,0 km/h (0 Bft) 95,74 %
03.07.2020 01:32 13,8 C 12,8 C 12,8 C 93 % 1015,4 hPa 0,0 l/m 0 min 0 min 0 W/m 0,0 km/h (0 Bft) 95,74 %
03.07.2020 01:34 13,8 C 12,8 C 12,8 C 93 % 1015,4 hPa 0,0 l/m 0 min 0 min 0 W/m 3,2 km/h (1 Bft) 93,62 %
03.07.2020 01:36 13,8 C 12,8 C 12,8 C 93 % 1015,4 hPa 0,0 l/m 0 min 0 min 0 W/m 0,0 km/h (0 Bft) 93,62 %
03.07.2020 01:38 13,8 C 12,8 C 12,8 C 93 % 1015,4 hPa 0,0 l/m 0 min 0 min 0 W/m 0,0 km/h (0 Bft) 93,62 %
03.07.2020 01:40 13,8 C 12,8 C 12,8 C 93 % 1015,5 hPa 0,0 l/m 0 min 0 min 0 W/m 0,0 km/h (0 Bft) 91,30 %
03.07.2020 01:42 13,8 C 12,8 C 12,8 C 93 % 1015,4 hPa 0,0 l/m 0 min 0 min 0 W/m 3,2 km/h (1 Bft) 91,49 %
03.07.2020 01:44 13,8 C 12,8 C 12,8 C 93 % 1015,4 hPa 0,0 l/m 0 min 0 min 0 W/m 0,0 km/h (0 Bft) 93,62 %
03.07.2020 01:46 13,8 C 12,8 C 12,8 C 93 % 1015,4 hPa 0,0 l/m 0 min 0 min 0 W/m 0,0 km/h (0 Bft) 93,62 %
03.07.2020 01:48 13,8 C 12,8 C 12,8 C 93 % 1015,4 hPa 0,0 l/m 0 min 0 min 0 W/m 0,0 km/h (0 Bft) 93,62 %
03.07.2020 01:50 13,8 C 12,8 C 12,8 C 93 % 1015,5 hPa 0,0 l/m 0 min 0 min 0 W/m 0,0 km/h (0 Bft) 95,74 %
03.07.2020 01:52 13,8 C 12,8 C 12,8 C 93 % 1015,5 hPa 0,0 l/m 0 min 0 min 0 W/m 9,7 km/h (2 Bft) 95,65 %
03.07.2020 01:54 13,8 C 12,8 C 12,8 C 93 % 1015,5 hPa 0,0 l/m 0 min 0 min 0 W/m 6,4 km/h (2 Bft) 93,62 %
03.07.2020 01:56 13,8 C 12,8 C 12,8 C 93 % 1015,5 hPa 0,0 l/m 0 min 0 min 0 W/m 3,2 km/h (1 Bft) 95,74 %
03.07.2020 01:58 13,8 C 12,8 C 12,8 C 93 % 1015,5 hPa 0,0 l/m 0 min 0 min 0 W/m 6,4 km/h (2 Bft) 95,74 %
03.07.2020 02:00 13,8 C 12,8 C 12,8 C 93 % 1015,5 hPa 0,0 l/m 0 min 0 min 0 W/m 6,4 km/h (2 Bft) 95,74 %
03.07.2020 02:02 13,8 C 12,8 C 12,8 C 93 % 1015,5 hPa 0,0 l/m 0 min 0 min 0 W/m 6,4 km/h (2 Bft) 93,62 %
03.07.2020 02:04 13,8 C 12,8 C 12,8 C 93 % 1015,5 hPa 0,0 l/m 0 min 0 min 0 W/m 0,0 km/h (0 Bft) 97,87 %
03.07.2020 02:06 13,8 C 12,8 C 12,8 C 93 % 1015,6 hPa 0,0 l/m 0 min 0 min 0 W/m 0,0 km/h (0 Bft) 97,87 %
03.07.2020 02:08 13,8 C 12,8 C 12,8 C 93 % 1015,6 hPa 0,0 l/m 0 min 0 min 0 W/m 0,0 km/h (0 Bft) 93,62 %
03.07.2020 02:10 13,8 C 12,8 C 12,8 C 93 % 1015,6 hPa 0,0 l/m 0 min 0 min 0 W/m 3,2 km/h (1 Bft) 97,87 %
03.07.2020 02:12 13,8 C 12,8 C 12,8 C 93 % 1015,6 hPa 0,0 l/m 0 min 0 min 0 W/m 9,7 km/h (2 Bft) 95,74 %
03.07.2020 02:14 13,8 C 12,8 C 12,8 C 94 % 1015,6 hPa 0,0 l/m 0 min 0 min 0 W/m 9,7 km/h (2 Bft) 95,65 %
03.07.2020 02:16 13,8 C 12,8 C 12,8 C 94 % 1015,6 hPa 0,0 l/m 0 min 0 min 0 W/m 6,4 km/h (2 Bft) 100,00 %
03.07.2020 02:18 13,8 C 12,8 C 12,8 C 94 % 1015,6 hPa 0,0 l/m 0 min 0 min 0 W/m 12,9 km/h (3 Bft) 97,87 %
03.07.2020 02:20 13,8 C 12,8 C 12,8 C 94 % 1015,6 hPa 0,0 l/m 0 min 0 min 0 W/m 12,9 km/h (3 Bft) 100,00 %
03.07.2020 02:22 13,8 C 12,8 C 12,8 C 94 % 1015,6 hPa 0,0 l/m 0 min 0 min 0 W/m 6,4 km/h (2 Bft) 100,00 %
03.07.2020 02:24 13,8 C 12,8 C 12,8 C 94 % 1015,7 hPa 0,0 l/m 0 min 0 min 0 W/m 12,9 km/h (3 Bft) 100,00 %
03.07.2020 02:26 13,8 C 12,8 C 12,8 C 94 % 1015,7 hPa 0,0 l/m 0 min 0 min 0 W/m 16,1 km/h (3 Bft) 100,00 %
03.07.2020 02:28 13,8 C 12,8 C 12,8 C 94 % 1015,7 hPa 0,0 l/m 0 min 0 min 0 W/m 6,4 km/h (2 Bft) 97,87 %
03.07.2020 02:30 13,8 C 12,8 C 12,8 C 94 % 1015,7 hPa 0,0 l/m 0 min 0 min 0 W/m 6,4 km/h (2 Bft) 100,00 %
03.07.2020 02:32 13,8 C 12,8 C 12,8 C 94 % 1015,7 hPa 0,0 l/m 0 min 0 min 0 W/m 3,2 km/h (1 Bft) 100,00 %
03.07.2020 02:34 13,7 C 12,8 C 12,8 C 94 % 1015,7 hPa 0,0 l/m 0 min 0 min 0 W/m 6,4 km/h (2 Bft) 100,00 %
03.07.2020 02:36 13,7 C 12,8 C 12,8 C 94 % 1015,7 hPa 0,0 l/m 0 min 0 min 0 W/m 6,4 km/h (2 Bft) 97,87 %
03.07.2020 02:38 13,7 C 12,8 C 12,8 C 94 % 1015,7 hPa 0,0 l/m 0 min 0 min 0 W/m 6,4 km/h (2 Bft) 100,00 %
03.07.2020 02:40 13,7 C 12,8 C 12,8 C 94 % 1015,7 hPa 0,0 l/m 0 min 0 min 0 W/m 6,4 km/h (2 Bft) 97,87 %
03.07.2020 02:42 13,7 C 12,8 C 12,8 C 94 % 1015,7 hPa 0,0 l/m 0 min 0 min 0 W/m 0,0 km/h (0 Bft) 97,87 %
03.07.2020 02:44 13,7 C 12,8 C 12,2 C 94 % 1015,7 hPa 0,0 l/m 0 min 0 min 0 W/m 0,0 km/h (0 Bft) 100,00 %
03.07.2020 02:46 13,7 C 12,8 C 12,2 C 94 % 1015,7 hPa 0,0 l/m 0 min 0 min 0 W/m 0,0 km/h (0 Bft) 100,00 %
03.07.2020 02:48 13,7 C 12,8 C 12,2 C 94 % 1015,7 hPa 0,0 l/m 0 min 0 min 0 W/m 6,4 km/h (2 Bft) 100,00 %
03.07.2020 02:50 13,6 C 12,8 C 12,2 C 94 % 1015,7 hPa 0,0 l/m 0 min 0 min 0 W/m 16,1 km/h (3 Bft) 100,00 %
03.07.2020 02:52 13,6 C 12,8 C 12,2 C 94 % 1015,7 hPa 0,0 l/m 0 min 0 min 0 W/m 3,2 km/h (1 Bft) 100,00 %
03.07.2020 02:54 13,6 C 12,8 C 12,2 C 94 % 1015,7 hPa 0,0 l/m 0 min 0 min 0 W/m 6,4 km/h (2 Bft) 100,00 %
03.07.2020 02:56 13,6 C 12,8 C 12,2 C 94 % 1015,7 hPa 0,0 l/m 0 min 0 min 0 W/m 3,2 km/h (1 Bft) 100,00 %
03.07.2020 02:58 13,6 C 12,8 C 12,2 C 94 % 1015,7 hPa 0,0 l/m 0 min 0 min 0 W/m 6,4 km/h (2 Bft) 97,87 %
03.07.2020 03:00 13,6 C 12,8 C 12,2 C 94 % 1015,8 hPa 0,0 l/m 0 min 0 min 0 W/m 6,4 km/h (2 Bft) 100,00 %
03.07.2020 03:02 13,6 C 12,8 C 12,2 C 94 % 1015,8 hPa 0,0 l/m 0 min 0 min 0 W/m 12,9 km/h (3 Bft) 100,00 %
03.07.2020 03:04 13,6 C 12,8 C 12,2 C 94 % 1015,9 hPa 0,0 l/m 0 min 0 min 0 W/m 0,0 km/h (0 Bft) 97,87 %
03.07.2020 03:06 13,5 C 12,2 C 12,2 C 94 % 1015,9 hPa 0,0 l/m 0 min 0 min 0 W/m 0,0 km/h (0 Bft) 97,87 %
03.07.2020 03:08 13,5 C 12,2 C 12,2 C 94 % 1015,9 hPa 0,0 l/m 0 min 0 min 0 W/m 6,4 km/h (2 Bft) 100,00 %
03.07.2020 03:10 13,5 C 12,2 C 12,2 C 94 % 1015,9 hPa 0,0 l/m 0 min 0 min 0 W/m 0,0 km/h (0 Bft) 100,00 %
03.07.2020 03:12 13,5 C 12,2 C 12,2 C 94 % 1015,9 hPa 0,0 l/m 0 min 0 min 0 W/m 0,0 km/h (0 Bft) 100,00 %
03.07.2020 03:14 13,5 C 12,2 C 12,2 C 94 % 1015,9 hPa 0,0 l/m 0 min 0 min 0 W/m 0,0 km/h (0 Bft) 100,00 %
03.07.2020 03:16 13,4 C 12,2 C 12,2 C 94 % 1015,9 hPa 0,0 l/m 0 min 0 min 0 W/m 6,4 km/h (2 Bft) 97,87 %
03.07.2020 03:18 13,4 C 12,2 C 12,2 C 94 % 1015,9 hPa 0,0 l/m 0 min 0 min 0 W/m 0,0 km/h (0 Bft) 100,00 %
03.07.2020 03:20 13,4 C 12,2 C 12,2 C 94 % 1015,9 hPa 0,0 l/m 0 min 0 min 0 W/m 12,9 km/h (3 Bft) 100,00 %
03.07.2020 03:22 13,4 C 12,2 C 12,2 C 94 % 1016,1 hPa 0,0 l/m 0 min 0 min 0 W/m 6,4 km/h (2 Bft) 97,87 %
03.07.2020 03:24 13,4 C 12,2 C 12,2 C 93 % 1016,0 hPa 0,0 l/m 0 min 0 min 0 W/m 0,0 km/h (0 Bft) 100,00 %
03.07.2020 03:26 13,3 C 12,2 C 12,2 C 93 % 1016,1 hPa 0,0 l/m 0 min 0 min 0 W/m 0,0 km/h (0 Bft) 100,00 %
03.07.2020 03:28 13,3 C 12,2 C 12,2 C 93 % 1016,1 hPa 0,0 l/m 0 min 0 min 0 W/m 0,0 km/h (0 Bft) 97,87 %
03.07.2020 03:30 13,3 C 12,2 C 12,2 C 93 % 1016,1 hPa 0,0 l/m 0 min 0 min 0 W/m 0,0 km/h (0 Bft) 97,87 %
03.07.2020 03:32 13,3 C 12,2 C 12,2 C 93 % 1016,2 hPa 0,0 l/m 0 min 0 min 0 W/m 0,0 km/h (0 Bft) 100,00 %
03.07.2020 03:34 13,3 C 12,2 C 12,2 C 93 % 1016,1 hPa 0,0 l/m 0 min 0 min 0 W/m 0,0 km/h (0 Bft) 100,00 %
03.07.2020 03:36 13,3 C 12,2 C 12,2 C 93 % 1016,1 hPa 0,0 l/m 0 min 0 min 0 W/m 0,0 km/h (0 Bft) 100,00 %
03.07.2020 03:38 13,2 C 12,2 C 12,2 C 93 % 1016,1 hPa 0,0 l/m 0 min 0 min 0 W/m 0,0 km/h (0 Bft) 100,00 %
03.07.2020 03:40 13,2 C 12,2 C 12,2 C 93 % 1016,1 hPa 0,0 l/m 0 min 0 min 0 W/m 0,0 km/h (0 Bft) 56,52 %
03.07.2020 03:42 13,2 C 12,2 C 12,2 C 93 % 1016,1 hPa 0,0 l/m 0 min 0 min 0 W/m 0,0 km/h (0 Bft) 100,00 %
03.07.2020 03:44 13,2 C 12,2 C 12,2 C 93 % 1016,1 hPa 0,0 l/m 0 min 0 min 0 W/m 0,0 km/h (0 Bft) 100,00 %
03.07.2020 03:46 13,2 C 11,7 C 12,2 C 93 % 1016,1 hPa 0,0 l/m 0 min 0 min 0 W/m 0,0 km/h (0 Bft) 93,62 %
03.07.2020 03:48 13,2 C 11,7 C 12,2 C 93 % 1016,1 hPa 0,0 l/m 0 min 0 min 0 W/m 0,0 km/h (0 Bft) 100,00 %
03.07.2020 03:50 13,1 C 11,7 C 11,7 C 93 % 1016,1 hPa 0,0 l/m 0 min 0 min 0 W/m 3,2 km/h (1 Bft) 100,00 %
03.07.2020 03:52 13,1 C 11,7 C 11,7 C 93 % 1016,1 hPa 0,0 l/m 0 min 0 min 0 W/m 9,7 km/h (2 Bft) 93,62 %
03.07.2020 03:54 13,1 C 11,7 C 11,7 C 93 % 1016,1 hPa 0,0 l/m 0 min 0 min 0 W/m 3,2 km/h (1 Bft) 95,74 %
03.07.2020 03:56 13,1 C 11,7 C 11,7 C 93 % 1016,1 hPa 0,0 l/m 0 min 0 min 0 W/m 0,0 km/h (0 Bft) 97,87 %
03.07.2020 03:58 13,0 C 11,7 C 12,2 C 93 % 1016,2 hPa 0,0 l/m 0 min 0 min 0 W/m 3,2 km/h (1 Bft) 95,65 %
03.07.2020 04:00 13,0 C 11,7 C 12,2 C 93 % 1016,2 hPa 0,0 l/m 0 min 0 min 0 W/m 0,0 km/h (0 Bft) 95,74 %
03.07.2020 04:02 12,9 C 11,7 C 12,2 C 93 % 1016,1 hPa 0,0 l/m 0 min 0 min 0 W/m 3,2 km/h (1 Bft) 93,75 %
03.07.2020 04:04 12,9 C 11,7 C 11,7 C 93 % 1016,1 hPa 0,0 l/m 0 min 0 min 0 W/m 3,2 km/h (1 Bft) 95,74 %
03.07.2020 04:06 12,9 C 11,7 C 12,2 C 92 % 1016,0 hPa 0,0 l/m 0 min 0 min 0 W/m 0,0 km/h (0 Bft) 95,74 %
03.07.2020 04:08 12,9 C 12,2 C 12,2 C 92 % 1016,0 hPa 0,0 l/m 0 min 0 min 0 W/m 0,0 km/h (0 Bft) 95,74 %
03.07.2020 04:10 12,9 C 12,2 C 12,2 C 92 % 1016,0 hPa 0,0 l/m 0 min 0 min 0 W/m 0,0 km/h (0 Bft) 95,65 %
03.07.2020 04:12 12,9 C 12,2 C 12,2 C 92 % 1016,0 hPa 0,0 l/m 0 min 0 min 0 W/m 9,7 km/h (2 Bft) 95,74 %
03.07.2020 04:14 12,8 C 12,2 C 12,2 C 92 % 1016,0 hPa 0,0 l/m 0 min 0 min 0 W/m 9,7 km/h (2 Bft) 93,62 %
03.07.2020 04:16 12,8 C 12,2 C 12,2 C 92 % 1016,0 hPa 0,0 l/m 0 min 0 min 0 W/m 3,2 km/h (1 Bft) 93,62 %
03.07.2020 04:18 12,8 C 11,7 C 12,2 C 92 % 1015,9 hPa 0,0 l/m 0 min 0 min 0 W/m 3,2 km/h (1 Bft) 95,74 %
03.07.2020 04:20 12,8 C 12,2 C 12,2 C 92 % 1015,9 hPa 0,0 l/m 0 min 0 min 0 W/m 6,4 km/h (2 Bft) 95,74 %
03.07.2020 04:22 12,8 C 11,7 C 12,2 C 92 % 1015,9 hPa 0,0 l/m 0 min 0 min 0 W/m 0,0 km/h (0 Bft) 95,65 %
03.07.2020 04:24 12,8 C 11,7 C 12,2 C 92 % 1015,9 hPa 0,0 l/m 0 min 0 min 0 W/m 12,9 km/h (3 Bft) 95,74 %
03.07.2020 04:26 12,8 C 11,7 C 11,7 C 92 % 1016,0 hPa 0,0 l/m 0 min 0 min 0 W/m 9,7 km/h (2 Bft) 95,74 %
03.07.2020 04:28 12,8 C 11,7 C 11,7 C 92 % 1016,0 hPa 0,0 l/m 0 min 0 min 0 W/m 9,7 km/h (2 Bft) 95,74 %
03.07.2020 04:30 12,8 C 11,7 C 11,7 C 92 % 1016,0 hPa 0,0 l/m 0 min 0 min 0 W/m 3,2 km/h (1 Bft) 93,62 %
03.07.2020 04:32 12,8 C 11,7 C 11,7 C 92 % 1016,0 hPa 0,0 l/m 0 min 0 min 0 W/m 0,0 km/h (0 Bft) 93,62 %
03.07.2020 04:34 12,8 C 11,7 C 11,7 C 92 % 1016,0 hPa 0,0 l/m 0 min 0 min 0 W/m 9,7 km/h (2 Bft) 97,83 %
03.07.2020 04:36 12,7 C 11,7 C 11,7 C 92 % 1016,0 hPa 0,0 l/m 0 min 0 min 0 W/m 6,4 km/h (2 Bft) 95,74 %
03.07.2020 04:38 12,7 C 11,7 C 11,7 C 92 % 1016,0 hPa 0,0 l/m 0 min 0 min 0 W/m 3,2 km/h (1 Bft) 95,74 %
03.07.2020 04:40 12,7 C 11,7 C 11,7 C 92 % 1016,0 hPa 0,0 l/m 0 min 0 min 0 W/m 0,0 km/h (0 Bft) 95,74 %
03.07.2020 04:42 12,7 C 11,7 C 11,7 C 92 % 1016,0 hPa 0,0 l/m 0 min 0 min 0 W/m 3,2 km/h (1 Bft) 95,74 %
03.07.2020 04:44 12,7 C 11,7 C 11,7 C 92 % 1016,1 hPa 0,0 l/m 0 min 0 min 0 W/m 3,2 km/h (1 Bft) 97,87 %
03.07.2020 04:46 12,7 C 11,7 C 11,7 C 92 % 1016,1 hPa 0,0 l/m 0 min 0 min 0 W/m 3,2 km/h (1 Bft) 100,00 %
03.07.2020 04:48 12,7 C 11,7 C 11,7 C 92 % 1016,1 hPa 0,0 l/m 0 min 0 min 0 W/m 3,2 km/h (1 Bft) 100,00 %
03.07.2020 04:50 12,7 C 11,7 C 11,7 C 92 % 1016,1 hPa 0,0 l/m 0 min 0 min 0 W/m 9,7 km/h (2 Bft) 100,00 %
03.07.2020 04:52 12,7 C 11,7 C 11,7 C 92 % 1016,1 hPa 0,0 l/m 0 min 0 min 0 W/m 0,0 km/h (0 Bft) 97,87 %
03.07.2020 04:54 12,7 C 11,7 C 11,7 C 92 % 1016,2 hPa 0,0 l/m 0 min 0 min 0 W/m 0,0 km/h (0 Bft) 97,87 %
03.07.2020 04:56 12,7 C 11,7 C 11,7 C 92 % 1016,2 hPa 0,0 l/m 0 min 0 min 0 W/m 3,2 km/h (1 Bft) 100,00 %
03.07.2020 04:58 12,7 C 11,7 C 11,7 C 92 % 1016,2 hPa 0,0 l/m 0 min 0 min 0 W/m 6,4 km/h (2 Bft) 100,00 %
03.07.2020 05:00 12,7 C 12,2 C 12,2 C 92 % 1016,2 hPa 0,0 l/m 0 min 0 min 0 W/m 6,4 km/h (2 Bft) 100,00 %
03.07.2020 05:02 12,7 C 12,2 C 12,2 C 93 % 1016,2 hPa 0,0 l/m 0 min 0 min 0 W/m 3,2 km/h (1 Bft) 91,49 %
03.07.2020 05:04 12,7 C 12,2 C 12,2 C 93 % 1016,2 hPa 0,0 l/m 0 min 0 min 0 W/m 0,0 km/h (0 Bft) 93,62 %
03.07.2020 05:06 12,7 C 12,2 C 12,2 C 93 % 1016,2 hPa 0,0 l/m 0 min 0 min 0 W/m 12,9 km/h (3 Bft) 97,87 %
03.07.2020 05:08 12,7 C 12,2 C 12,2 C 93 % 1016,2 hPa 0,0 l/m 0 min 0 min 0 W/m 3,2 km/h (1 Bft) 95,65 %
03.07.2020 05:10 12,7 C 12,2 C 12,2 C 93 % 1016,2 hPa 0,0 l/m 0 min 0 min 0 W/m 6,4 km/h (2 Bft) 97,87 %
03.07.2020 05:12 12,8 C 12,2 C 12,2 C 93 % 1016,3 hPa 0,0 l/m 0 min 0 min 0 W/m 6,4 km/h (2 Bft) 95,74 %
03.07.2020 05:14 12,8 C 12,2 C 12,2 C 93 % 1016,2 hPa 0,0 l/m 0 min 0 min 0 W/m 9,7 km/h (2 Bft) 97,87 %
03.07.2020 05:16 12,8 C 12,2 C 12,2 C 93 % 1016,2 hPa 0,0 l/m 0 min 0 min 0 W/m 3,2 km/h (1 Bft) 97,87 %
03.07.2020 05:18 12,8 C 12,8 C 12,2 C 93 % 1016,2 hPa 0,0 l/m 0 min 0 min 0 W/m 9,7 km/h (2 Bft) 97,87 %
03.07.2020 05:20 12,8 C 12,8 C 12,2 C 93 % 1016,3 hPa 0,0 l/m 0 min 0 min 0 W/m 6,4 km/h (2 Bft) 97,83 %
03.07.2020 05:22 12,9 C 12,8 C 12,2 C 93 % 1016,3 hPa 0,0 l/m 0 min 0 min 0 W/m 16,1 km/h (3 Bft) 97,87 %
03.07.2020 05:24 12,9 C 12,8 C 12,2 C 93 % 1016,4 hPa 0,0 l/m 0 min 0 min 0 W/m 19,3 km/h (3 Bft) 95,74 %
03.07.2020 05:26 12,9 C 12,8 C 12,2 C 93 % 1016,4 hPa 0,0 l/m 0 min 0 min 0 W/m 6,4 km/h (2 Bft) 97,87 %
03.07.2020 05:28 12,9 C 12,8 C 12,2 C 93 % 1016,4 hPa 0,0 l/m 0 min 0 min 0 W/m 16,1 km/h (3 Bft) 93,62 %
03.07.2020 05:30 13,0 C 12,8 C 12,2 C 93 % 1016,4 hPa 0,0 l/m 0 min 0 min 0 W/m 12,9 km/h (3 Bft) 97,87 %
03.07.2020 05:32 13,0 C 12,8 C 12,8 C 93 % 1016,5 hPa 0,0 l/m 0 min 0 min 0 W/m 0,0 km/h (0 Bft) 97,83 %
03.07.2020 05:34 13,1 C 12,8 C 12,8 C 93 % 1016,5 hPa 0,0 l/m 0 min 0 min 0 W/m 6,4 km/h (2 Bft) 97,87 %
03.07.2020 05:36 13,1 C 12,8 C 12,8 C 93 % 1016,5 hPa 0,0 l/m 0 min 0 min 0 W/m 16,1 km/h (3 Bft) 97,87 %
03.07.2020 05:38 13,1 C 12,8 C 12,8 C 93 % 1016,5 hPa 0,0 l/m 0 min 0 min 0 W/m 12,9 km/h (3 Bft) 93,62 %
03.07.2020 05:40 13,1 C 12,8 C 12,8 C 93 % 1016,5 hPa 0,0 l/m 0 min 0 min 0 W/m 12,9 km/h (3 Bft) 93,62 %
03.07.2020 05:42 13,2 C 12,8 C 12,8 C 93 % 1016,6 hPa 0,0 l/m 0 min 0 min 0 W/m 12,9 km/h (3 Bft) 97,87 %
03.07.2020 05:44 13,2 C 12,8 C 12,8 C 93 % 1016,6 hPa 0,0 l/m 0 min 0 min 1 W/m 6,4 km/h (2 Bft) 97,83 %
03.07.2020 05:46 13,2 C 12,8 C 12,8 C 93 % 1016,6 hPa 0,0 l/m 0 min 0 min 5 W/m 12,9 km/h (3 Bft) 97,87 %
03.07.2020 05:48 13,2 C 12,8 C 12,8 C 93 % 1016,6 hPa 0,0 l/m 0 min 0 min 5 W/m 12,9 km/h (3 Bft) 95,74 %
03.07.2020 05:50 13,3 C 12,8 C 12,8 C 93 % 1016,5 hPa 0,0 l/m 0 min 0 min 5 W/m 6,4 km/h (2 Bft) 95,74 %
03.07.2020 05:52 13,3 C 12,8 C 12,8 C 93 % 1016,6 hPa 0,0 l/m 0 min 0 min 7 W/m 0,0 km/h (0 Bft) 97,87 %
03.07.2020 05:54 13,3 C 12,8 C 12,8 C 93 % 1016,6 hPa 0,0 l/m 0 min 0 min 7 W/m 16,1 km/h (3 Bft) 97,87 %
03.07.2020 05:56 13,3 C 12,8 C 12,8 C 93 % 1016,5 hPa 0,0 l/m 0 min 0 min 9 W/m 12,9 km/h (3 Bft) 95,65 %
03.07.2020 05:58 13,3 C 12,8 C 12,8 C 93 % 1016,6 hPa 0,0 l/m 0 min 0 min 9 W/m 12,9 km/h (3 Bft) 97,87 %
03.07.2020 06:00 13,3 C 12,8 C 12,8 C 92 % 1016,6 hPa 0,0 l/m 0 min 0 min 9 W/m 16,1 km/h (3 Bft) 97,87 %
03.07.2020 06:02 13,3 C 12,8 C 12,8 C 92 % 1016,6 hPa 0,0 l/m 0 min 0 min 10 W/m 6,4 km/h (2 Bft) 97,87 %
03.07.2020 06:04 13,4 C 12,8 C 12,8 C 92 % 1016,6 hPa 0,0 l/m 0 min 0 min 11 W/m 12,9 km/h (3 Bft) 97,87 %
03.07.2020 06:08 13,4 C 12,8 C 12,8 C 92 % 1016,6 hPa 0,0 l/m 0 min 0 min 12 W/m 12,9 km/h (3 Bft) 98,92 %
03.07.2020 06:10 13,4 C 12,8 C 12,8 C 92 % 1016,6 hPa 0,0 l/m 0 min 0 min 14 W/m 12,9 km/h (3 Bft) 100,00 %
03.07.2020 06:12 13,4 C 12,8 C 12,8 C 92 % 1016,7 hPa 0,0 l/m 0 min 0 min 14 W/m 12,9 km/h (3 Bft) 97,87 %
03.07.2020 06:14 13,4 C 12,8 C 12,8 C 92 % 1016,8 hPa 0,0 l/m 0 min 0 min 17 W/m 6,4 km/h (2 Bft) 100,00 %
03.07.2020 06:16 13,4 C 12,8 C 12,8 C 92 % 1016,8 hPa 0,0 l/m 0 min 0 min 19 W/m 6,4 km/h (2 Bft) 100,00 %
03.07.2020 06:18 13,5 C 12,8 C 12,8 C 92 % 1016,8 hPa 0,0 l/m 0 min 0 min 23 W/m 6,4 km/h (2 Bft) 100,00 %
03.07.2020 06:20 13,5 C 12,8 C 12,8 C 92 % 1016,8 hPa 0,0 l/m 0 min 0 min 23 W/m 6,4 km/h (2 Bft) 97,83 %
03.07.2020 06:22 13,5 C 13,3 C 12,8 C 92 % 1016,8 hPa 0,0 l/m 0 min 0 min 23 W/m 9,7 km/h (2 Bft) 97,87 %
03.07.2020 06:24 13,5 C 13,3 C 12,8 C 92 % 1016,9 hPa 0,0 l/m 0 min 0 min 25 W/m 12,9 km/h (3 Bft) 100,00 %
03.07.2020 06:26 13,6 C 13,3 C 12,8 C 92 % 1016,9 hPa 0,0 l/m 0 min 0 min 25 W/m 6,4 km/h (2 Bft) 100,00 %
03.07.2020 06:28 13,6 C 13,3 C 12,8 C 92 % 1016,9 hPa 0,0 l/m 0 min 0 min 23 W/m 12,9 km/h (3 Bft) 97,87 %
03.07.2020 06:30 13,6 C 13,3 C 12,8 C 92 % 1016,9 hPa 0,0 l/m 0 min 0 min 21 W/m 9,7 km/h (2 Bft) 97,83 %
03.07.2020 06:32 13,6 C 13,3 C 12,8 C 92 % 1016,9 hPa 0,0 l/m 0 min 0 min 23 W/m 12,9 km/h (3 Bft) 97,22 %
03.07.2020 06:34 13,6 C 13,3 C 12,8 C 92 % 1016,9 hPa 0,0 l/m 0 min 0 min 29 W/m 9,7 km/h (2 Bft) 100,00 %
03.07.2020 06:36 13,6 C 13,3 C 12,8 C 92 % 1016,9 hPa 0,0 l/m 0 min 0 min 29 W/m 9,7 km/h (2 Bft) 100,00 %
03.07.2020 06:38 13,6 C 13,3 C 12,8 C 92 % 1017,0 hPa 0,0 l/m 0 min 0 min 28 W/m 6,4 km/h (2 Bft) 93,62 %
03.07.2020 06:40 13,6 C 13,3 C 12,8 C 92 % 1017,0 hPa 0,0 l/m 0 min 0 min 28 W/m 9,7 km/h (2 Bft) 88,57 %
03.07.2020 06:42 13,6 C 13,3 C 12,8 C 92 % 1017,0 hPa 0,0 l/m 0 min 0 min 28 W/m 9,7 km/h (2 Bft) 87,23 %
03.07.2020 06:44 13,7 C 13,3 C 12,8 C 92 % 1017,0 hPa 0,0 l/m 0 min 0 min 28 W/m 6,4 km/h (2 Bft) 87,23 %
03.07.2020 06:46 13,7 C 13,3 C 12,8 C 92 % 1017,1 hPa 0,0 l/m 0 min 0 min 33 W/m 6,4 km/h (2 Bft) 80,43 %
03.07.2020 06:48 13,7 C 13,3 C 12,8 C 92 % 1017,1 hPa 0,0 l/m 0 min 0 min 42 W/m 19,3 km/h (3 Bft) 89,36 %
03.07.2020 06:50 13,7 C 13,3 C 12,8 C 92 % 1017,0 hPa 0,0 l/m 0 min 0 min 55 W/m 19,3 km/h (3 Bft) 72,34 %
03.07.2020 06:52 13,7 C 13,9 C 13,3 C 92 % 1017,0 hPa 0,0 l/m 0 min 0 min 66 W/m 6,4 km/h (2 Bft) 59,57 %
03.07.2020 06:54 13,8 C 13,9 C 13,3 C 92 % 1017,0 hPa 0,0 l/m 0 min 0 min 74 W/m 12,9 km/h (3 Bft) 80,85 %
03.07.2020 06:56 13,8 C 13,9 C 13,3 C 92 % 1017,0 hPa 0,0 l/m 0 min 0 min 65 W/m 9,7 km/h (2 Bft) 80,43 %
03.07.2020 06:58 13,8 C 13,9 C 13,3 C 92 % 1017,0 hPa 0,0 l/m 0 min 0 min 49 W/m 12,9 km/h (3 Bft) 80,85 %
03.07.2020 07:00 13,8 C 13,9 C 13,3 C 92 % 1017,0 hPa 0,0 l/m 0 min 0 min 40 W/m 12,9 km/h (3 Bft) 85,11 %
03.07.2020 07:02 13,8 C 13,9 C 13,3 C 92 % 1017,1 hPa 0,0 l/m 0 min 0 min 32 W/m 6,4 km/h (2 Bft) 82,98 %
03.07.2020 07:04 13,8 C 13,3 C 13,3 C 92 % 1017,1 hPa 0,0 l/m 0 min 0 min 26 W/m 6,4 km/h (2 Bft) 95,74 %
03.07.2020 07:06 13,9 C 13,3 C 13,3 C 92 % 1017,1 hPa 0,0 l/m 0 min 0 min 32 W/m 9,7 km/h (2 Bft) 96,55 %
03.07.2020 07:08 13,9 C 13,3 C 13,3 C 92 % 1017,1 hPa 0,0 l/m 0 min 0 min 43 W/m 9,7 km/h (2 Bft) 93,62 %
03.07.2020 07:10 13,9 C 13,9 C 13,3 C 92 % 1017,2 hPa 0,0 l/m 0 min 0 min 54 W/m 12,9 km/h (3 Bft) 97,14 %
03.07.2020 07:12 13,9 C 13,9 C 13,3 C 92 % 1017,1 hPa 0,0 l/m 0 min 0 min 57 W/m 16,1 km/h (3 Bft) 95,74 %
03.07.2020 07:14 13,9 C 13,9 C 13,3 C 92 % 1017,2 hPa 0,0 l/m 0 min 0 min 62 W/m 12,9 km/h (3 Bft) 93,62 %
03.07.2020 07:16 13,9 C 13,9 C 13,3 C 91 % 1017,2 hPa 0,0 l/m 0 min 0 min 57 W/m 12,9 km/h (3 Bft) 95,74 %
03.07.2020 07:18 13,9 C 13,9 C 13,3 C 91 % 1017,1 hPa 0,0 l/m 0 min 0 min 54 W/m 12,9 km/h (3 Bft) 95,74 %
03.07.2020 07:20 13,9 C 13,9 C 13,3 C 91 % 1017,2 hPa 0,0 l/m 0 min 0 min 54 W/m 19,3 km/h (3 Bft) 95,65 %
03.07.2020 07:22 14,0 C 13,9 C 13,3 C 92 % 1017,2 hPa 0,0 l/m 0 min 0 min 75 W/m 16,1 km/h (3 Bft) 93,62 %
03.07.2020 07:24 14,0 C 13,9 C 13,3 C 91 % 1017,2 hPa 0,0 l/m 0 min 0 min 94 W/m 16,1 km/h (3 Bft) 95,74 %
03.07.2020 07:26 14,1 C 14,4 C 13,3 C 91 % 1017,2 hPa 0,0 l/m 0 min 0 min 96 W/m 9,7 km/h (2 Bft) 91,49 %
03.07.2020 07:28 14,1 C 14,4 C 13,3 C 92 % 1017,2 hPa 0,0 l/m 0 min 0 min 90 W/m 12,9 km/h (3 Bft) 95,74 %
03.07.2020 07:30 14,1 C 14,4 C 13,3 C 91 % 1017,2 hPa 0,0 l/m 0 min 0 min 93 W/m 16,1 km/h (3 Bft) 97,87 %
03.07.2020 07:32 14,1 C 14,4 C 13,3 C 91 % 1017,2 hPa 0,0 l/m 0 min 0 min 102 W/m 16,1 km/h (3 Bft) 97,83 %
03.07.2020 07:34 14,2 C 14,4 C 13,9 C 91 % 1017,2 hPa 0,0 l/m 0 min 0 min 105 W/m 12,9 km/h (3 Bft) 97,87 %
03.07.2020 07:36 14,3 C 14,4 C 13,9 C 91 % 1017,2 hPa 0,0 l/m 0 min 0 min 99 W/m 16,1 km/h (3 Bft) 100,00 %
03.07.2020 07:38 14,3 C 14,4 C 13,9 C 91 % 1017,2 hPa 0,0 l/m 0 min 0 min 85 W/m 16,1 km/h (3 Bft) 97,87 %
03.07.2020 07:40 14,3 C 14,4 C 13,9 C 91 % 1017,3 hPa 0,0 l/m 0 min 0 min 70 W/m 12,9 km/h (3 Bft) 100,00 %
03.07.2020 07:42 14,3 C 14,4 C 13,9 C 91 % 1017,3 hPa 0,0 l/m 0 min 0 min 73 W/m 12,9 km/h (3 Bft) 97,87 %
03.07.2020 07:44 14,3 C 14,4 C 13,9 C 91 % 1017,2 hPa 0,0 l/m 0 min 0 min 70 W/m 12,9 km/h (3 Bft) 97,83 %
03.07.2020 07:46 14,3 C 14,4 C 13,9 C 91 % 1017,3 hPa 0,0 l/m 0 min 0 min 80 W/m 19,3 km/h (3 Bft) 100,00 %
03.07.2020 07:48 14,3 C 14,4 C 13,9 C 91 % 1017,3 hPa 0,0 l/m 0 min 0 min 91 W/m 16,1 km/h (3 Bft) 100,00 %
03.07.2020 07:50 14,3 C 14,4 C 13,9 C 91 % 1017,3 hPa 0,0 l/m 0 min 0 min 89 W/m 16,1 km/h (3 Bft) 100,00 %
03.07.2020 07:52 14,3 C 14,4 C 13,9 C 91 % 1017,3 hPa 0,0 l/m 0 min 0 min 91 W/m 12,9 km/h (3 Bft) 100,00 %
03.07.2020 07:54 14,4 C 14,4 C 13,9 C 91 % 1017,3 hPa 0,0 l/m 0 min 0 min 94 W/m 12,9 km/h (3 Bft) 100,00 %
03.07.2020 07:56 14,4 C 14,4 C 13,9 C 91 % 1017,3 hPa 0,0 l/m 0 min 0 min 97 W/m 9,7 km/h (2 Bft) 97,83 %
03.07.2020 07:58 14,5 C 14,4 C 13,9 C 91 % 1017,4 hPa 0,0 l/m 0 min 0 min 96 W/m 16,1 km/h (3 Bft) 100,00 %
03.07.2020 08:00 14,5 C 14,4 C 13,9 C 91 % 1017,4 hPa 0,0 l/m 0 min 0 min 97 W/m 22,5 km/h (4 Bft) 97,87 %
03.07.2020 08:02 14,6 C 14,4 C 13,9 C 91 % 1017,4 hPa 0,0 l/m 0 min 0 min 98 W/m 19,3 km/h (3 Bft) 100,00 %
03.07.2020 08:04 14,6 C 14,4 C 13,9 C 91 % 1017,3 hPa 0,0 l/m 0 min 0 min 102 W/m 19,3 km/h (3 Bft) 100,00 %
03.07.2020 08:06 14,6 C 14,4 C 13,9 C 91 % 1017,3 hPa 0,0 l/m 0 min 0 min 103 W/m 19,3 km/h (3 Bft) 100,00 %
03.07.2020 08:08 14,6 C 14,4 C 13,9 C 91 % 1017,3 hPa 0,0 l/m 0 min 0 min 88 W/m 12,9 km/h (3 Bft) 98,31 %
03.07.2020 08:10 14,7 C 15,0 C 13,9 C 91 % 1017,4 hPa 0,0 l/m 0 min 0 min 89 W/m 16,1 km/h (3 Bft) 100,00 %
03.07.2020 08:12 14,7 C 15,0 C 13,9 C 91 % 1017,5 hPa 0,0 l/m 0 min 0 min 83 W/m 12,9 km/h (3 Bft) 97,87 %
03.07.2020 08:14 14,7 C 15,0 C 13,9 C 91 % 1017,4 hPa 0,0 l/m 0 min 0 min 76 W/m 19,3 km/h (3 Bft) 100,00 %
03.07.2020 08:16 14,8 C 16,7 C 13,9 C 91 % 1017,5 hPa 0,0 l/m 0 min 0 min 81 W/m 19,3 km/h (3 Bft) 100,00 %
03.07.2020 08:18 14,8 C 17,2 C 14,4 C 91 % 1017,5 hPa 0,0 l/m 0 min 0 min 89 W/m 12,9 km/h (3 Bft) 100,00 %
03.07.2020 08:20 14,9 C 17,8 C 14,4 C 91 % 1017,5 hPa 0,0 l/m 0 min 0 min 126 W/m 16,1 km/h (3 Bft) 100,00 %
03.07.2020 08:22 15,0 C 17,2 C 14,4 C 91 % 1017,6 hPa 0,0 l/m 0 min 0 min 168 W/m 12,9 km/h (3 Bft) 100,00 %
03.07.2020 08:24 15,1 C 17,2 C 15,0 C 91 % 1017,6 hPa 0,0 l/m 0 min 0 min 170 W/m 12,9 km/h (3 Bft) 100,00 %
03.07.2020 08:26 15,2 C 16,1 C 14,4 C 91 % 1017,6 hPa 0,0 l/m 0 min 0 min 153 W/m 19,3 km/h (3 Bft) 97,87 %
03.07.2020 08:28 15,2 C 15,6 C 14,4 C 90 % 1017,7 hPa 0,0 l/m 0 min 0 min 151 W/m 22,5 km/h (4 Bft) 97,87 %
03.07.2020 08:30 15,2 C 15,6 C 14,4 C 89 % 1017,7 hPa 0,0 l/m 0 min 0 min 156 W/m 12,9 km/h (3 Bft) 97,83 %
03.07.2020 08:32 15,2 C 15,6 C 14,4 C 89 % 1017,7 hPa 0,0 l/m 0 min 0 min 143 W/m 9,7 km/h (2 Bft) 95,74 %
03.07.2020 08:34 15,3 C 15,6 C 14,4 C 89 % 1017,8 hPa 0,0 l/m 0 min 0 min 145 W/m 22,5 km/h (4 Bft) 97,87 %
03.07.2020 08:36 15,3 C 15,6 C 14,4 C 89 % 1017,7 hPa 0,0 l/m 0 min 0 min 159 W/m 12,9 km/h (3 Bft) 98,31 %
03.07.2020 08:38 15,3 C 15,6 C 14,4 C 89 % 1017,8 hPa 0,0 l/m 0 min 0 min 174 W/m 16,1 km/h (3 Bft) 97,87 %
03.07.2020 08:40 15,3 C 15,6 C 14,4 C 89 % 1017,8 hPa 0,0 l/m 0 min 0 min 149 W/m 9,7 km/h (2 Bft) 97,14 %
03.07.2020 08:42 15,3 C 15,6 C 14,4 C 89 % 1017,8 hPa 0,0 l/m 0 min 0 min 136 W/m 16,1 km/h (3 Bft) 98,28 %
03.07.2020 08:44 15,3 C 15,0 C 14,4 C 89 % 1017,9 hPa 0,0 l/m 0 min 0 min 138 W/m 19,3 km/h (3 Bft) 97,14 %
03.07.2020 08:46 15,3 C 15,0 C 14,4 C 89 % 1017,8 hPa 0,0 l/m 0 min 0 min 109 W/m 25,7 km/h (4 Bft) 95,74 %
03.07.2020 08:48 15,3 C 15,0 C 13,9 C 89 % 1017,8 hPa 0,0 l/m 0 min 0 min 121 W/m 22,5 km/h (4 Bft) 97,87 %
03.07.2020 08:50 15,3 C 15,0 C 13,9 C 89 % 1017,8 hPa 0,0 l/m 0 min 0 min 120 W/m 22,5 km/h (4 Bft) 97,87 %
03.07.2020 08:52 15,3 C 15,0 C 13,9 C 89 % 1017,9 hPa 0,0 l/m 0 min 0 min 129 W/m 19,3 km/h (3 Bft) 97,87 %
03.07.2020 08:54 15,3 C 15,0 C 14,4 C 89 % 1017,8 hPa 0,0 l/m 0 min 0 min 140 W/m 9,7 km/h (2 Bft) 97,83 %
03.07.2020 08:56 15,3 C 15,0 C 14,4 C 89 % 1017,9 hPa 0,0 l/m 0 min 0 min 124 W/m 9,7 km/h (2 Bft) 97,87 %
03.07.2020 08:58 15,3 C 15,0 C 14,4 C 89 % 1017,9 hPa 0,0 l/m 0 min 0 min 140 W/m 16,1 km/h (3 Bft) 97,87 %
03.07.2020 09:00 15,2 C 15,0 C 14,4 C 89 % 1017,9 hPa 0,0 l/m 0 min 0 min 116 W/m 12,9 km/h (3 Bft) 97,87 %
03.07.2020 09:02 15,2 C 15,0 C 13,9 C 89 % 1017,9 hPa 0,0 l/m 0 min 0 min 116 W/m 16,1 km/h (3 Bft) 97,87 %
03.07.2020 09:04 15,2 C 15,0 C 13,9 C 90 % 1017,9 hPa 0,0 l/m 0 min 0 min 123 W/m 19,3 km/h (3 Bft) 97,83 %
03.07.2020 09:06 15,2 C 15,0 C 13,9 C 90 % 1017,9 hPa 0,0 l/m 0 min 0 min 128 W/m 22,5 km/h (4 Bft) 94,92 %
03.07.2020 09:08 15,2 C 15,0 C 13,9 C 90 % 1017,9 hPa 0,0 l/m 0 min 0 min 150 W/m 19,3 km/h (3 Bft) 97,87 %
03.07.2020 09:10 15,2 C 15,0 C 13,9 C 90 % 1017,9 hPa 0,0 l/m 0 min 0 min 145 W/m 22,5 km/h (4 Bft) 97,14 %
03.07.2020 09:12 15,1 C 15,0 C 14,4 C 90 % 1017,9 hPa 0,0 l/m 0 min 0 min 163 W/m 19,3 km/h (3 Bft) 97,87 %
03.07.2020 09:14 15,1 C 15,0 C 14,4 C 90 % 1017,9 hPa 0,0 l/m 0 min 0 min 168 W/m 19,3 km/h (3 Bft) 97,87 %
03.07.2020 09:16 15,1 C 15,0 C 14,4 C 90 % 1018,0 hPa 0,0 l/m 0 min 0 min 200 W/m 19,3 km/h (3 Bft) 97,83 %
03.07.2020 09:18 15,1 C 15,6 C 14,4 C 90 % 1017,9 hPa 0,0 l/m 0 min 0 min 218 W/m 12,9 km/h (3 Bft) 95,74 %
03.07.2020 09:20 15,1 C 17,2 C 15,6 C 91 % 1018,0 hPa 0,0 l/m 0 min 0 min 255 W/m 22,5 km/h (4 Bft) 95,74 %
03.07.2020 09:22 15,2 C 17,2 C 15,6 C 91 % 1018,0 hPa 0,0 l/m 0 min 0 min 263 W/m 12,9 km/h (3 Bft) 97,87 %
03.07.2020 09:24 15,2 C 16,7 C 15,6 C 91 % 1018,0 hPa 0,0 l/m 0 min 0 min 205 W/m 12,9 km/h (3 Bft) 97,87 %
03.07.2020 09:26 15,3 C 16,7 C 15,0 C 90 % 1018,0 hPa 0,0 l/m 0 min 0 min 221 W/m 9,7 km/h (2 Bft) 95,74 %
03.07.2020 09:28 15,3 C 17,2 C 15,6 C 90 % 1018,0 hPa 0,0 l/m 2 min 0 min 327 W/m 16,1 km/h (3 Bft) 97,83 %
03.07.2020 09:30 15,4 C 17,2 C 16,1 C 90 % 1018,0 hPa 0,0 l/m 2 min 0 min 276 W/m 12,9 km/h (3 Bft) 97,87 %
03.07.2020 09:32 15,5 C 16,7 C 15,6 C 91 % 1018,1 hPa 0,0 l/m 0 min 0 min 195 W/m 9,7 km/h (2 Bft) 95,74 %
03.07.2020 09:34 15,6 C 16,7 C 15,6 C 90 % 1018,1 hPa 0,0 l/m 0 min 0 min 200 W/m 12,9 km/h (3 Bft) 97,87 %
03.07.2020 09:36 15,6 C 16,7 C 15,0 C 90 % 1018,0 hPa 0,0 l/m 0 min 0 min 169 W/m 16,1 km/h (3 Bft) 98,28 %
03.07.2020 09:38 15,6 C 16,1 C 15,0 C 90 % 1018,0 hPa 0,0 l/m 0 min 0 min 171 W/m 12,9 km/h (3 Bft) 97,87 %
03.07.2020 09:40 15,6 C 16,1 C 15,0 C 90 % 1017,9 hPa 0,0 l/m 0 min 0 min 154 W/m 16,1 km/h (3 Bft) 97,14 %
03.07.2020 09:42 15,6 C 15,6 C 15,0 C 90 % 1018,0 hPa 0,0 l/m 0 min 0 min 178 W/m 25,7 km/h (4 Bft) 95,74 %
03.07.2020 09:44 15,6 C 15,6 C 15,0 C 89 % 1018,0 hPa 0,0 l/m 0 min 0 min 151 W/m 12,9 km/h (3 Bft) 95,74 %
03.07.2020 09:46 15,6 C 15,6 C 14,4 C 89 % 1018,0 hPa 0,0 l/m 0 min 0 min 152 W/m 16,1 km/h (3 Bft) 97,87 %
03.07.2020 09:48 15,6 C 15,6 C 14,4 C 89 % 1018,0 hPa 0,0 l/m 0 min 0 min 172 W/m 19,3 km/h (3 Bft) 95,74 %
03.07.2020 09:50 15,6 C 15,6 C 14,4 C 89 % 1018,0 hPa 0,0 l/m 0 min 0 min 185 W/m 22,5 km/h (4 Bft) 95,74 %
03.07.2020 09:52 15,5 C 15,6 C 14,4 C 89 % 1018,0 hPa 0,0 l/m 0 min 0 min 170 W/m 16,1 km/h (3 Bft) 97,83 %
03.07.2020 09:54 15,5 C 15,6 C 14,4 C 89 % 1018,0 hPa 0,0 l/m 0 min 0 min 177 W/m 12,9 km/h (3 Bft) 93,62 %
03.07.2020 09:56 15,6 C 15,6 C 14,4 C 90 % 1018,0 hPa 0,0 l/m 0 min 0 min 170 W/m 19,3 km/h (3 Bft) 95,74 %
03.07.2020 09:58 15,6 C 15,6 C 14,4 C 90 % 1018,0 hPa 0,0 l/m 0 min 0 min 178 W/m 19,3 km/h (3 Bft) 97,87 %
03.07.2020 10:00 15,6 C 16,1 C 15,0 C 90 % 1018,0 hPa 0,0 l/m 0 min 0 min 213 W/m 19,3 km/h (3 Bft) 97,87 %
03.07.2020 10:02 15,6 C 16,1 C 15,0 C 90 % 1018,1 hPa 0,0 l/m 0 min 0 min 236 W/m 19,3 km/h (3 Bft) 100,00 %
03.07.2020 10:04 15,6 C 16,7 C 15,0 C 90 % 1018,1 hPa 0,0 l/m 0 min 0 min 230 W/m 12,9 km/h (3 Bft) 97,83 %
03.07.2020 10:06 15,6 C 16,1 C 15,0 C 90 % 1018,0 hPa 0,0 l/m 0 min 0 min 259 W/m 22,5 km/h (4 Bft) 96,61 %
03.07.2020 10:08 15,7 C 16,1 C 15,0 C 90 % 1018,0 hPa 0,0 l/m 0 min 0 min 256 W/m 19,3 km/h (3 Bft) 97,87 %
03.07.2020 10:10 15,7 C 16,1 C 15,0 C 90 % 1018,1 hPa 0,0 l/m 0 min 0 min 249 W/m 16,1 km/h (3 Bft) 100,00 %
03.07.2020 10:12 15,7 C 16,1 C 15,0 C 90 % 1018,0 hPa 0,0 l/m 0 min 0 min 226 W/m 19,3 km/h (3 Bft) 93,62 %
03.07.2020 10:14 15,7 C 16,7 C 15,0 C 90 % 1018,1 hPa 0,0 l/m 0 min 0 min 268 W/m 16,1 km/h (3 Bft) 97,83 %
03.07.2020 10:16 15,7 C 16,7 C 15,0 C 90 % 1018,1 hPa 0,0 l/m 0 min 0 min 253 W/m 12,9 km/h (3 Bft) 97,87 %
03.07.2020 10:18 15,8 C 16,7 C 15,6 C 90 % 1018,1 hPa 0,0 l/m 0 min 0 min 259 W/m 22,5 km/h (4 Bft) 97,87 %
03.07.2020 10:20 15,8 C 16,7 C 15,6 C 90 % 1018,1 hPa 0,0 l/m 0 min 0 min 239 W/m 19,3 km/h (3 Bft) 97,87 %
03.07.2020 10:22 15,8 C 16,7 C 15,6 C 90 % 1018,1 hPa 0,0 l/m 0 min 0 min 252 W/m 16,1 km/h (3 Bft) 95,74 %
03.07.2020 10:24 15,8 C 16,7 C 15,6 C 90 % 1018,2 hPa 0,0 l/m 0 min 0 min 219 W/m 12,9 km/h (3 Bft) 97,87 %
03.07.2020 10:26 15,9 C 16,7 C 15,6 C 90 % 1018,2 hPa 0,0 l/m 0 min 0 min 220 W/m 25,7 km/h (4 Bft) 95,65 %
03.07.2020 10:28 15,9 C 16,7 C 15,6 C 90 % 1018,2 hPa 0,0 l/m 0 min 0 min 205 W/m 16,1 km/h (3 Bft) 97,87 %
03.07.2020 10:30 15,9 C 16,1 C 15,0 C 90 % 1018,2 hPa 0,0 l/m 0 min 0 min 159 W/m 12,9 km/h (3 Bft) 95,74 %
03.07.2020 10:32 16,0 C 16,1 C 15,6 C 90 % 1018,2 hPa 0,0 l/m 0 min 0 min 187 W/m 6,4 km/h (2 Bft) 97,87 %
03.07.2020 10:34 16,0 C 16,1 C 15,6 C 90 % 1018,3 hPa 0,0 l/m 0 min 0 min 187 W/m 12,9 km/h (3 Bft) 97,87 %
03.07.2020 10:36 16,1 C 16,7 C 15,6 C 90 % 1018,3 hPa 0,0 l/m 0 min 0 min 220 W/m 16,1 km/h (3 Bft) 96,55 %
03.07.2020 10:38 16,1 C 16,7 C 15,6 C 90 % 1018,3 hPa 0,0 l/m 0 min 0 min 217 W/m 16,1 km/h (3 Bft) 91,49 %
03.07.2020 10:40 16,1 C 16,7 C 15,6 C 90 % 1018,3 hPa 0,0 l/m 0 min 0 min 167 W/m 16,1 km/h (3 Bft) 100,00 %
03.07.2020 10:42 16,2 C 16,7 C 15,6 C 90 % 1018,3 hPa 0,0 l/m 0 min 0 min 174 W/m 6,4 km/h (2 Bft) 95,74 %
03.07.2020 10:44 16,2 C 17,2 C 15,6 C 90 % 1018,2 hPa 0,0 l/m 0 min 0 min 236 W/m 6,4 km/h (2 Bft) 97,87 %
03.07.2020 10:46 16,2 C 16,7 C 15,6 C 90 % 1018,2 hPa 0,0 l/m 0 min 0 min 172 W/m 22,5 km/h (4 Bft) 97,87 %
03.07.2020 10:48 16,2 C 16,7 C 15,6 C 89 % 1018,3 hPa 0,0 l/m 0 min 0 min 135 W/m 16,1 km/h (3 Bft) 95,74 %
03.07.2020 10:50 16,2 C 16,7 C 15,6 C 89 % 1018,2 hPa 0,0 l/m 0 min 0 min 168 W/m 9,7 km/h (2 Bft) 97,83 %
03.07.2020 10:52 16,2 C 17,2 C 15,6 C 89 % 1018,3 hPa 0,0 l/m 0 min 0 min 288 W/m 19,3 km/h (3 Bft) 97,87 %
03.07.2020 10:54 16,3 C 17,8 C 16,1 C 89 % 1018,3 hPa 0,0 l/m 0 min 0 min 327 W/m 16,1 km/h (3 Bft) 97,87 %
03.07.2020 10:56 16,3 C 17,8 C 16,1 C 89 % 1018,2 hPa 0,0 l/m 0 min 0 min 326 W/m 16,1 km/h (3 Bft) 97,87 %
03.07.2020 10:58 16,4 C 18,3 C 16,1 C 89 % 1018,3 hPa 0,0 l/m 0 min 0 min 307 W/m 22,5 km/h (4 Bft) 97,87 %
03.07.2020 11:00 16,4 C 18,9 C 16,7 C 89 % 1018,2 hPa 0,0 l/m 2 min 0 min 395 W/m 22,5 km/h (4 Bft) 97,87 %
03.07.2020 11:02 16,4 C 18,3 C 16,7 C 88 % 1018,2 hPa 0,0 l/m 0 min 0 min 327 W/m 22,5 km/h (4 Bft) 97,83 %
03.07.2020 11:04 16,6 C 18,3 C 16,7 C 88 % 1018,2 hPa 0,0 l/m 0 min 0 min 275 W/m 19,3 km/h (3 Bft) 98,00 %
03.07.2020 11:06 16,6 C 17,8 C 16,7 C 87 % 1018,2 hPa 0,0 l/m 0 min 0 min 265 W/m 25,7 km/h (4 Bft) 100,00 %
03.07.2020 11:08 16,6 C 17,8 C 16,1 C 87 % 1018,2 hPa 0,0 l/m 0 min 0 min 286 W/m 22,5 km/h (4 Bft) 97,83 %
03.07.2020 11:10 16,7 C 18,9 C 16,7 C 87 % 1018,1 hPa 0,0 l/m 2 min 0 min 399 W/m 16,1 km/h (3 Bft) 100,00 %
03.07.2020 11:12 16,8 C 18,9 C 16,7 C 87 % 1018,1 hPa 0,0 l/m 2 min 0 min 394 W/m 16,1 km/h (3 Bft) 100,00 %
03.07.2020 11:14 16,8 C 18,9 C 17,2 C 87 % 1018,2 hPa 0,0 l/m 0 min 0 min 319 W/m 16,1 km/h (3 Bft) 97,87 %
03.07.2020 11:16 16,9 C 18,3 C 16,7 C 87 % 1018,2 hPa 0,0 l/m 0 min 0 min 225 W/m 12,9 km/h (3 Bft) 100,00 %
03.07.2020 11:18 17,0 C 18,3 C 16,7 C 86 % 1018,2 hPa 0,0 l/m 0 min 0 min 236 W/m 16,1 km/h (3 Bft) 97,87 %
03.07.2020 11:20 17,1 C 17,8 C 16,7 C 86 % 1018,2 hPa 0,0 l/m 0 min 0 min 241 W/m 16,1 km/h (3 Bft) 100,00 %
03.07.2020 11:22 17,1 C 17,8 C 16,7 C 86 % 1018,3 hPa 0,0 l/m 0 min 0 min 229 W/m 22,5 km/h (4 Bft) 97,87 %
03.07.2020 11:24 17,1 C 17,8 C 16,7 C 85 % 1018,3 hPa 0,0 l/m 0 min 0 min 255 W/m 19,3 km/h (3 Bft) 100,00 %
03.07.2020 11:26 17,1 C 17,8 C 16,1 C 85 % 1018,3 hPa 0,0 l/m 0 min 0 min 260 W/m 12,9 km/h (3 Bft) 97,87 %
03.07.2020 11:28 17,1 C 18,3 C 16,7 C 85 % 1018,3 hPa 0,0 l/m 0 min 0 min 307 W/m 9,7 km/h (2 Bft) 100,00 %
03.07.2020 11:30 17,2 C 18,9 C 16,7 C 86 % 1018,2 hPa 0,0 l/m 0 min 0 min 328 W/m 12,9 km/h (3 Bft) 100,00 %
03.07.2020 11:32 17,2 C 20,0 C 17,2 C 86 % 1018,2 hPa 0,0 l/m 0 min 0 min 350 W/m 16,1 km/h (3 Bft) 97,87 %
03.07.2020 11:34 17,3 C 19,4 C 17,2 C 85 % 1018,3 hPa 0,0 l/m 0 min 0 min 317 W/m 6,4 km/h (2 Bft) 95,74 %
03.07.2020 11:36 17,3 C 19,4 C 17,2 C 85 % 1018,2 hPa 0,0 l/m 0 min 0 min 253 W/m 6,4 km/h (2 Bft) 98,28 %
03.07.2020 11:38 17,4 C 19,4 C 17,2 C 85 % 1018,3 hPa 0,0 l/m 0 min 0 min 243 W/m 12,9 km/h (3 Bft) 95,74 %
03.07.2020 11:40 17,5 C 19,4 C 17,2 C 85 % 1018,2 hPa 0,0 l/m 0 min 0 min 333 W/m 16,1 km/h (3 Bft) 100,00 %
03.07.2020 11:42 17,6 C 19,4 C 17,2 C 85 % 1018,2 hPa 0,0 l/m 0 min 0 min 350 W/m 19,3 km/h (3 Bft) 95,83 %
03.07.2020 11:44 17,7 C 18,9 C 17,2 C 84 % 1018,3 hPa 0,0 l/m 0 min 0 min 186 W/m 16,1 km/h (3 Bft) 97,87 %
03.07.2020 11:46 17,7 C 18,3 C 17,2 C 84 % 1018,3 hPa 0,0 l/m 0 min 0 min 187 W/m 9,7 km/h (2 Bft) 93,48 %
03.07.2020 11:48 17,7 C 17,8 C 16,7 C 83 % 1018,4 hPa 0,0 l/m 0 min 0 min 167 W/m 16,1 km/h (3 Bft) 93,62 %
03.07.2020 11:50 17,7 C 17,8 C 16,7 C 83 % 1018,4 hPa 0,0 l/m 0 min 0 min 134 W/m 16,1 km/h (3 Bft) 93,62 %
03.07.2020 11:52 17,7 C 17,2 C 16,7 C 83 % 1018,4 hPa 0,0 l/m 0 min 0 min 140 W/m 6,4 km/h (2 Bft) 93,62 %
03.07.2020 11:54 17,7 C 17,2 C 16,7 C 83 % 1018,4 hPa 0,0 l/m 0 min 0 min 125 W/m 25,7 km/h (4 Bft) 95,74 %
03.07.2020 11:56 17,7 C 17,2 C 16,1 C 83 % 1018,5 hPa 0,0 l/m 0 min 0 min 127 W/m 16,1 km/h (3 Bft) 95,74 %
03.07.2020 11:58 17,6 C 17,2 C 16,1 C 83 % 1018,4 hPa 0,0 l/m 0 min 0 min 136 W/m 16,1 km/h (3 Bft) 95,65 %
03.07.2020 12:00 17,6 C 17,2 C 16,1 C 83 % 1018,5 hPa 0,0 l/m 0 min 0 min 123 W/m 16,1 km/h (3 Bft) 95,74 %
03.07.2020 12:02 17,6 C 16,7 C 16,1 C 83 % 1018,6 hPa 0,0 l/m 0 min 0 min 110 W/m 16,1 km/h (3 Bft) 93,62 %
03.07.2020 12:04 17,6 C 16,7 C 16,1 C 83 % 1018,5 hPa 0,0 l/m 0 min 0 min 146 W/m 29,0 km/h (5 Bft) 95,74 %
03.07.2020 12:07 17,6 C 17,8 C 16,7 C 84 % 1018,4 hPa 0,0 l/m 0 min 0 min 244 W/m 22,5 km/h (4 Bft) 95,74 %
03.07.2020 12:08 17,6 C 17,8 C 16,7 C 84 % 1018,4 hPa 0,0 l/m 0 min 0 min 220 W/m 22,5 km/h (4 Bft) 94,79 %
03.07.2020 12:10 17,6 C 17,8 C 16,7 C 84 % 1018,5 hPa 0,0 l/m 0 min 0 min 253 W/m 16,1 km/h (3 Bft) 95,74 %
03.07.2020 12:12 17,6 C 18,3 C 16,7 C 84 % 1018,5 hPa 0,0 l/m 0 min 0 min 211 W/m 12,9 km/h (3 Bft) 95,74 %
03.07.2020 12:14 17,6 C 18,3 C 16,7 C 84 % 1018,5 hPa 0,0 l/m 0 min 0 min 191 W/m 6,4 km/h (2 Bft) 95,74 %
03.07.2020 12:16 17,6 C 18,3 C 16,7 C 84 % 1018,4 hPa 0,0 l/m 0 min 0 min 204 W/m 16,1 km/h (3 Bft) 95,74 %
03.07.2020 12:18 17,6 C 18,3 C 16,7 C 84 % 1018,4 hPa 0,0 l/m 0 min 0 min 196 W/m 25,7 km/h (4 Bft) 95,74 %
03.07.2020 12:20 17,7 C 17,8 C 16,7 C 84 % 1018,5 hPa 0,0 l/m 0 min 0 min 199 W/m 22,5 km/h (4 Bft) 95,65 %
03.07.2020 12:22 17,7 C 18,3 C 16,7 C 84 % 1018,4 hPa 0,0 l/m 0 min 0 min 226 W/m 12,9 km/h (3 Bft) 93,62 %
03.07.2020 12:24 17,7 C 18,3 C 17,2 C 84 % 1018,5 hPa 0,0 l/m 0 min 0 min 257 W/m 22,5 km/h (4 Bft) 97,87 %
03.07.2020 12:26 17,7 C 18,3 C 17,2 C 83 % 1018,5 hPa 0,0 l/m 0 min 0 min 249 W/m 25,7 km/h (4 Bft) 97,87 %
03.07.2020 12:28 17,7 C 18,3 C 17,2 C 83 % 1018,4 hPa 0,0 l/m 0 min 0 min 257 W/m 19,3 km/h (3 Bft) 100,00 %
03.07.2020 12:30 17,8 C 18,3 C 17,2 C 83 % 1018,4 hPa 0,0 l/m 0 min 0 min 280 W/m 22,5 km/h (4 Bft) 95,74 %
03.07.2020 12:32 17,8 C 18,9 C 17,2 C 83 % 1018,4 hPa 0,0 l/m 0 min 0 min 293 W/m 16,1 km/h (3 Bft) 97,87 %
03.07.2020 12:34 17,8 C 18,9 C 17,2 C 82 % 1018,5 hPa 0,0 l/m 0 min 0 min 291 W/m 19,3 km/h (3 Bft) 100,00 %
03.07.2020 12:36 17,9 C 18,9 C 17,2 C 83 % 1018,4 hPa 0,0 l/m 0 min 0 min 230 W/m 6,4 km/h (2 Bft) 97,87 %
03.07.2020 12:38 17,9 C 18,3 C 17,2 C 83 % 1018,4 hPa 0,0 l/m 0 min 0 min 137 W/m 12,9 km/h (3 Bft) 100,00 %
03.07.2020 12:40 17,9 C 17,8 C 17,2 C 83 % 1018,5 hPa 0,0 l/m 0 min 0 min 143 W/m 22,5 km/h (4 Bft) 97,87 %
03.07.2020 12:42 17,9 C 17,8 C 17,2 C 82 % 1018,5 hPa 0,0 l/m 0 min 0 min 181 W/m 16,1 km/h (3 Bft) 100,00 %
03.07.2020 12:44 18,0 C 18,3 C 17,2 C 82 % 1018,5 hPa 0,0 l/m 0 min 0 min 228 W/m 16,1 km/h (3 Bft) 97,83 %
03.07.2020 12:46 18,0 C 18,9 C 17,2 C 83 % 1018,5 hPa 0,0 l/m 0 min 0 min 268 W/m 12,9 km/h (3 Bft) 100,00 %
03.07.2020 12:48 18,1 C 18,9 C 17,2 C 83 % 1018,5 hPa 0,0 l/m 0 min 0 min 276 W/m 16,1 km/h (3 Bft) 100,00 %
03.07.2020 12:50 18,1 C 18,9 C 17,2 C 83 % 1018,5 hPa 0,0 l/m 0 min 0 min 261 W/m 16,1 km/h (3 Bft) 100,00 %
03.07.2020 12:52 18,1 C 18,9 C 17,8 C 83 % 1018,6 hPa 0,0 l/m 0 min 0 min 255 W/m 16,1 km/h (3 Bft) 100,00 %
03.07.2020 12:54 18,2 C 18,9 C 17,8 C 83 % 1018,5 hPa 0,0 l/m 0 min 0 min 252 W/m 16,1 km/h (3 Bft) 100,00 %
03.07.2020 12:56 18,2 C 18,9 C 17,8 C 82 % 1018,5 hPa 0,0 l/m 0 min 0 min 226 W/m 25,7 km/h (4 Bft) 97,83 %
03.07.2020 12:58 18,2 C 18,3 C 17,8 C 82 % 1018,5 hPa 0,0 l/m 0 min 0 min 199 W/m 12,9 km/h (3 Bft) 97,87 %
03.07.2020 13:00 18,2 C 18,3 C 17,8 C 81 % 1018,6 hPa 0,0 l/m 0 min 0 min 185 W/m 19,3 km/h (3 Bft) 100,00 %
03.07.2020 13:02 18,2 C 18,3 C 17,8 C 81 % 1018,5 hPa 0,0 l/m 0 min 0 min 155 W/m 19,3 km/h (3 Bft) 100,00 %
03.07.2020 13:04 18,2 C 18,3 C 17,2 C 82 % 1018,5 hPa 0,0 l/m 0 min 0 min 168 W/m 19,3 km/h (3 Bft) 100,00 %
03.07.2020 13:06 18,2 C 18,3 C 17,2 C 81 % 1018,5 hPa 0,0 l/m 0 min 0 min 200 W/m 22,5 km/h (4 Bft) 100,00 %
03.07.2020 13:08 18,2 C 18,3 C 17,2 C 81 % 1018,6 hPa 0,0 l/m 0 min 0 min 212 W/m 12,9 km/h (3 Bft) 100,00 %
03.07.2020 13:10 18,2 C 18,3 C 17,2 C 82 % 1018,6 hPa 0,0 l/m 0 min 0 min 214 W/m 16,1 km/h (3 Bft) 100,00 %
03.07.2020 13:12 18,2 C 18,3 C 17,2 C 82 % 1018,6 hPa 0,0 l/m 0 min 0 min 211 W/m 25,7 km/h (4 Bft) 100,00 %
03.07.2020 13:14 18,2 C 18,3 C 17,2 C 81 % 1018,6 hPa 0,0 l/m 0 min 0 min 197 W/m 19,3 km/h (3 Bft) 100,00 %
03.07.2020 13:16 18,2 C 18,3 C 17,2 C 82 % 1018,6 hPa 0,0 l/m 0 min 0 min 186 W/m 9,7 km/h (2 Bft) 97,87 %
03.07.2020 13:18 18,2 C 18,3 C 17,2 C 82 % 1018,7 hPa 0,0 l/m 0 min 0 min 197 W/m 12,9 km/h (3 Bft) 100,00 %
03.07.2020 13:20 18,3 C 18,3 C 17,2 C 82 % 1018,6 hPa 0,0 l/m 0 min 0 min 196 W/m 6,4 km/h (2 Bft) 95,65 %
03.07.2020 13:22 18,3 C 18,9 C 17,2 C 82 % 1018,6 hPa 0,0 l/m 0 min 0 min 179 W/m 6,4 km/h (2 Bft) 100,00 %
03.07.2020 13:24 18,3 C 18,9 C 17,2 C 82 % 1018,6 hPa 0,0 l/m 0 min 0 min 195 W/m 9,7 km/h (2 Bft) 95,74 %
03.07.2020 13:26 18,3 C 18,9 C 17,8 C 82 % 1018,7 hPa 0,0 l/m 0 min 0 min 220 W/m 19,3 km/h (3 Bft) 95,74 %
03.07.2020 13:28 18,3 C 18,9 C 17,2 C 81 % 1018,7 hPa 0,0 l/m 0 min 0 min 276 W/m 16,1 km/h (3 Bft) 97,87 %
03.07.2020 13:30 18,3 C 19,4 C 17,8 C 82 % 1018,6 hPa 0,0 l/m 0 min 0 min 325 W/m 16,1 km/h (3 Bft) 100,00 %
03.07.2020 13:32 18,4 C 19,4 C 17,8 C 82 % 1018,6 hPa 0,0 l/m 0 min 0 min 310 W/m 16,1 km/h (3 Bft) 97,87 %
03.07.2020 13:34 18,4 C 19,4 C 17,8 C 81 % 1018,7 hPa 0,0 l/m 0 min 0 min 277 W/m 19,3 km/h (3 Bft) 100,00 %
03.07.2020 13:36 18,4 C 19,4 C 17,8 C 81 % 1018,6 hPa 0,0 l/m 0 min 0 min 256 W/m 12,9 km/h (3 Bft) 97,87 %
03.07.2020 13:38 18,4 C 19,4 C 17,8 C 82 % 1018,6 hPa 0,0 l/m 0 min 0 min 234 W/m 19,3 km/h (3 Bft) 98,15 %
03.07.2020 13:40 18,5 C 19,4 C 17,8 C 82 % 1018,6 hPa 0,0 l/m 0 min 0 min 254 W/m 12,9 km/h (3 Bft) 100,00 %
03.07.2020 13:42 18,6 C 19,4 C 17,8 C 82 % 1018,7 hPa 0,0 l/m 0 min 0 min 266 W/m 6,4 km/h (2 Bft) 100,00 %
03.07.2020 13:44 18,6 C 20,0 C 17,8 C 82 % 1018,7 hPa 0,0 l/m 0 min 0 min 265 W/m 12,9 km/h (3 Bft) 96,55 %
03.07.2020 13:46 18,7 C 19,4 C 17,8 C 82 % 1018,7 hPa 0,0 l/m 0 min 0 min 262 W/m 16,1 km/h (3 Bft) 97,14 %
03.07.2020 13:48 18,7 C 19,4 C 17,8 C 81 % 1018,6 hPa 0,0 l/m 0 min 0 min 245 W/m 16,1 km/h (3 Bft) 97,87 %
03.07.2020 13:50 18,7 C 19,4 C 17,8 C 81 % 1018,7 hPa 0,0 l/m 0 min 0 min 216 W/m 22,5 km/h (4 Bft) 95,74 %
03.07.2020 13:52 18,7 C 18,9 C 17,8 C 81 % 1018,6 hPa 0,0 l/m 0 min 0 min 213 W/m 12,9 km/h (3 Bft) 95,74 %
03.07.2020 13:54 18,7 C 18,9 C 17,8 C 81 % 1018,7 hPa 0,0 l/m 0 min 0 min 203 W/m 12,9 km/h (3 Bft) 97,83 %
03.07.2020 13:56 18,7 C 18,9 C 17,8 C 81 % 1018,7 hPa 0,0 l/m 0 min 0 min 204 W/m 22,5 km/h (4 Bft) 97,87 %
03.07.2020 13:58 18,7 C 18,9 C 17,8 C 81 % 1018,7 hPa 0,0 l/m 0 min 0 min 227 W/m 22,5 km/h (4 Bft) 96,61 %
03.07.2020 14:00 18,7 C 19,4 C 17,8 C 81 % 1018,7 hPa 0,0 l/m 0 min 0 min 240 W/m 12,9 km/h (3 Bft) 97,14 %
03.07.2020 14:02 18,7 C 19,4 C 17,8 C 81 % 1018,6 hPa 0,0 l/m 0 min 0 min 266 W/m 12,9 km/h (3 Bft) 95,83 %
03.07.2020 14:04 18,8 C 19,4 C 17,8 C 81 % 1018,6 hPa 0,0 l/m 0 min 0 min 283 W/m 16,1 km/h (3 Bft) 97,87 %
03.07.2020 14:06 18,8 C 19,4 C 18,3 C 81 % 1018,6 hPa 0,0 l/m 0 min 0 min 306 W/m 19,3 km/h (3 Bft) 97,83 %
03.07.2020 14:08 18,8 C 20,0 C 18,3 C 80 % 1018,6 hPa 0,0 l/m 0 min 0 min 333 W/m 6,4 km/h (2 Bft) 97,87 %
03.07.2020 14:10 18,8 C 20,6 C 18,3 C 81 % 1018,5 hPa 0,0 l/m 0 min 0 min 317 W/m 6,4 km/h (2 Bft) 95,74 %
03.07.2020 14:12 18,9 C 20,0 C 18,3 C 81 % 1018,5 hPa 0,0 l/m 0 min 0 min 335 W/m 25,7 km/h (4 Bft) 93,62 %
03.07.2020 14:14 18,9 C 20,6 C 18,3 C 80 % 1018,5 hPa 0,0 l/m 0 min 0 min 383 W/m 16,1 km/h (3 Bft) 95,74 %
03.07.2020 14:16 19,0 C 21,7 C 18,3 C 80 % 1018,4 hPa 0,0 l/m 2 min 0 min 480 W/m 16,1 km/h (3 Bft) 95,74 %
03.07.2020 14:18 19,1 C 21,7 C 18,9 C 80 % 1018,4 hPa 0,0 l/m 2 min 0 min 525 W/m 12,9 km/h (3 Bft) 95,65 %
03.07.2020 14:20 19,2 C 22,8 C 19,4 C 80 % 1018,5 hPa 0,0 l/m 2 min 0 min 606 W/m 9,7 km/h (2 Bft) 95,83 %
03.07.2020 14:22 19,3 C 23,3 C 19,4 C 80 % 1018,4 hPa 0,0 l/m 2 min 0 min 490 W/m 16,1 km/h (3 Bft) 93,75 %
03.07.2020 14:24 19,4 C 22,2 C 19,4 C 80 % 1018,4 hPa 0,0 l/m 2 min 0 min 487 W/m 16,1 km/h (3 Bft) 93,62 %
03.07.2020 14:26 19,5 C 21,7 C 19,4 C 79 % 1018,4 hPa 0,0 l/m 0 min 0 min 348 W/m 12,9 km/h (3 Bft) 93,62 %
03.07.2020 14:28 19,6 C 21,1 C 19,4 C 79 % 1018,4 hPa 0,0 l/m 0 min 0 min 245 W/m 6,4 km/h (2 Bft) 93,48 %
03.07.2020 14:30 19,6 C 21,1 C 18,9 C 78 % 1018,3 hPa 0,0 l/m 0 min 0 min 217 W/m 6,4 km/h (2 Bft) 93,62 %
03.07.2020 14:32 19,7 C 20,6 C 18,9 C 78 % 1018,3 hPa 0,0 l/m 0 min 0 min 265 W/m 16,1 km/h (3 Bft) 93,75 %
03.07.2020 14:34 19,7 C 20,6 C 18,9 C 77 % 1018,4 hPa 0,0 l/m 0 min 0 min 367 W/m 25,7 km/h (4 Bft) 93,62 %
03.07.2020 14:36 19,7 C 21,1 C 18,9 C 77 % 1018,3 hPa 0,0 l/m 2 min 0 min 434 W/m 19,3 km/h (3 Bft) 93,62 %
03.07.2020 14:38 19,8 C 22,2 C 19,4 C 78 % 1018,3 hPa 0,0 l/m 2 min 0 min 510 W/m 16,1 km/h (3 Bft) 93,62 %
03.07.2020 14:40 19,9 C 23,3 C 19,4 C 77 % 1018,2 hPa 0,0 l/m 2 min 0 min 540 W/m 12,9 km/h (3 Bft) 93,48 %
03.07.2020 14:42 20,0 C 23,9 C 20,0 C 78 % 1018,1 hPa 0,0 l/m 2 min 0 min 557 W/m 19,3 km/h (3 Bft) 91,49 %
03.07.2020 14:44 20,1 C 23,3 C 20,0 C 77 % 1018,1 hPa 0,0 l/m 2 min 0 min 577 W/m 25,7 km/h (4 Bft) 93,62 %
03.07.2020 14:46 20,2 C 22,8 C 19,4 C 76 % 1018,0 hPa 0,0 l/m 2 min 0 min 465 W/m 19,3 km/h (3 Bft) 91,49 %
03.07.2020 14:48 20,2 C 22,8 C 19,4 C 77 % 1018,1 hPa 0,0 l/m 0 min 0 min 363 W/m 12,9 km/h (3 Bft) 93,62 %
03.07.2020 14:50 20,3 C 21,7 C 19,4 C 76 % 1018,1 hPa 0,0 l/m 0 min 0 min 333 W/m 22,5 km/h (4 Bft) 95,74 %
03.07.2020 14:52 20,3 C 21,1 C 19,4 C 75 % 1018,1 hPa 0,0 l/m 0 min 0 min 286 W/m 32,2 km/h (5 Bft) 95,65 %
03.07.2020 14:54 20,3 C 21,1 C 19,4 C 75 % 1018,1 hPa 0,0 l/m 0 min 0 min 306 W/m 19,3 km/h (3 Bft) 91,49 %
03.07.2020 14:56 20,3 C 21,7 C 19,4 C 75 % 1018,0 hPa 0,0 l/m 0 min 0 min 313 W/m 12,9 km/h (3 Bft) 97,87 %
03.07.2020 14:58 20,4 C 21,7 C 19,4 C 75 % 1018,1 hPa 0,0 l/m 0 min 0 min 310 W/m 9,7 km/h (2 Bft) 95,74 %
03.07.2020 15:00 20,4 C 23,3 C 19,4 C 75 % 1018,1 hPa 0,0 l/m 2 min 0 min 408 W/m 19,3 km/h (3 Bft) 97,87 %
03.07.2020 15:02 20,5 C 25,0 C 20,0 C 76 % 1018,0 hPa 0,0 l/m 2 min 0 min 969 W/m 19,3 km/h (3 Bft) 95,83 %
03.07.2020 15:04 20,6 C 24,4 C 20,0 C 75 % 1018,0 hPa 0,0 l/m 2 min 0 min 1053 W/m 29,0 km/h (5 Bft) 97,83 %
03.07.2020 15:06 20,7 C 25,6 C 20,0 C 76 % 1018,0 hPa 0,0 l/m 2 min 0 min 1053 W/m 19,3 km/h (3 Bft) 95,74 %
03.07.2020 15:08 20,9 C 26,1 C 20,6 C 75 % 1017,9 hPa 0,0 l/m 2 min 0 min 1046 W/m 19,3 km/h (3 Bft) 95,74 %
03.07.2020 15:10 21,1 C 25,0 C 20,6 C 74 % 1017,9 hPa 0,0 l/m 2 min 0 min 1037 W/m 25,7 km/h (4 Bft) 95,74 %
03.07.2020 15:12 21,1 C 25,6 C 20,6 C 73 % 1017,9 hPa 0,0 l/m 2 min 0 min 1019 W/m 16,1 km/h (3 Bft) 95,74 %
03.07.2020 15:14 21,3 C 23,9 C 20,6 C 73 % 1017,8 hPa 0,0 l/m 2 min 0 min 945 W/m 16,1 km/h (3 Bft) 97,83 %
03.07.2020 15:16 21,3 C 23,9 C 20,0 C 72 % 1017,8 hPa 0,0 l/m 0 min 0 min 235 W/m 16,1 km/h (3 Bft) 97,87 %
03.07.2020 15:18 21,4 C 25,0 C 20,6 C 73 % 1017,8 hPa 0,0 l/m 2 min 0 min 768 W/m 16,1 km/h (3 Bft) 100,00 %
03.07.2020 15:20 21,5 C 24,4 C 20,6 C 73 % 1017,9 hPa 0,0 l/m 2 min 0 min 994 W/m 19,3 km/h (3 Bft) 100,00 %
03.07.2020 15:22 21,6 C 23,3 C 20,6 C 72 % 1017,8 hPa 0,0 l/m 0 min 0 min 262 W/m 16,1 km/h (3 Bft) 100,00 %
03.07.2020 15:24 21,6 C 22,8 C 20,6 C 71 % 1017,9 hPa 0,0 l/m 0 min 0 min 307 W/m 19,3 km/h (3 Bft) 100,00 %
03.07.2020 15:26 21,6 C 23,3 C 20,6 C 71 % 1017,8 hPa 0,0 l/m 0 min 0 min 354 W/m 12,9 km/h (3 Bft) 95,74 %
03.07.2020 15:28 21,6 C 24,4 C 20,6 C 72 % 1017,9 hPa 0,0 l/m 2 min 0 min 406 W/m 16,1 km/h (3 Bft) 100,00 %
03.07.2020 15:30 21,7 C 23,9 C 20,6 C 71 % 1017,8 hPa 0,0 l/m 0 min 0 min 323 W/m 16,1 km/h (3 Bft) 100,00 %
03.07.2020 15:32 21,7 C 23,3 C 20,6 C 70 % 1017,8 hPa 0,0 l/m 2 min 0 min 853 W/m 25,7 km/h (4 Bft) 100,00 %
03.07.2020 15:34 21,7 C 23,3 C 20,6 C 71 % 1017,8 hPa 0,0 l/m 2 min 0 min 555 W/m 12,9 km/h (3 Bft) 97,87 %
03.07.2020 15:36 21,8 C 23,3 C 20,6 C 71 % 1017,7 hPa 0,0 l/m 0 min 0 min 284 W/m 12,9 km/h (3 Bft) 100,00 %
03.07.2020 15:38 21,8 C 23,3 C 20,6 C 71 % 1017,8 hPa 0,0 l/m 0 min 0 min 258 W/m 16,1 km/h (3 Bft) 100,00 %
03.07.2020 15:40 21,8 C 23,9 C 20,0 C 70 % 1017,9 hPa 0,0 l/m 2 min 0 min 588 W/m 22,5 km/h (4 Bft) 100,00 %
03.07.2020 15:42 21,8 C 23,9 C 20,6 C 70 % 1017,9 hPa 0,0 l/m 2 min 0 min 880 W/m 38,6 km/h (5 Bft) 100,00 %
03.07.2020 15:44 21,8 C 23,3 C 20,6 C 70 % 1017,9 hPa 0,0 l/m 2 min 0 min 1028 W/m 29,0 km/h (5 Bft) 100,00 %
03.07.2020 15:46 21,8 C 22,8 C 20,6 C 70 % 1018,0 hPa 0,0 l/m 2 min 0 min 877 W/m 22,5 km/h (4 Bft) 100,00 %
03.07.2020 15:48 21,8 C 22,2 C 20,6 C 70 % 1017,9 hPa 0,0 l/m 0 min 0 min 240 W/m 16,1 km/h (3 Bft) 100,00 %
03.07.2020 15:50 21,8 C 22,8 C 20,6 C 71 % 1017,9 hPa 0,0 l/m 0 min 0 min 275 W/m 12,9 km/h (3 Bft) 100,00 %
03.07.2020 15:52 21,8 C 24,4 C 20,6 C 70 % 1017,9 hPa 0,0 l/m 2 min 0 min 508 W/m 16,1 km/h (3 Bft) 100,00 %
03.07.2020 15:54 21,8 C 24,4 C 20,6 C 70 % 1017,9 hPa 0,0 l/m 2 min 0 min 1014 W/m 22,5 km/h (4 Bft) 100,00 %
03.07.2020 15:56 21,8 C 23,3 C 20,6 C 70 % 1017,8 hPa 0,0 l/m 0 min 0 min 372 W/m 19,3 km/h (3 Bft) 100,00 %
03.07.2020 15:58 21,9 C 24,4 C 21,1 C 70 % 1017,8 hPa 0,0 l/m 2 min 0 min 426 W/m 16,1 km/h (3 Bft) 100,00 %
03.07.2020 16:00 22,0 C 23,9 C 21,1 C 70 % 1017,8 hPa 0,0 l/m 2 min 0 min 969 W/m 12,9 km/h (3 Bft) 100,00 %
03.07.2020 16:02 22,0 C 23,3 C 20,6 C 70 % 1017,8 hPa 0,0 l/m 0 min 0 min 246 W/m 9,7 km/h (2 Bft) 95,74 %
03.07.2020 16:04 22,1 C 23,9 C 20,6 C 70 % 1017,7 hPa 0,0 l/m 0 min 0 min 207 W/m 16,1 km/h (3 Bft) 100,00 %
03.07.2020 16:06 22,1 C 25,0 C 21,1 C 71 % 1017,8 hPa 0,0 l/m 2 min 0 min 491 W/m 22,5 km/h (4 Bft) 100,00 %
03.07.2020 16:08 22,1 C 23,3 C 21,1 C 69 % 1017,9 hPa 0,0 l/m 2 min 0 min 620 W/m 25,7 km/h (4 Bft) 100,00 %
03.07.2020 16:10 22,1 C 22,2 C 20,6 C 68 % 1017,8 hPa 0,0 l/m 0 min 0 min 258 W/m 32,2 km/h (5 Bft) 100,00 %
03.07.2020 16:12 22,1 C 22,2 C 20,6 C 69 % 1017,7 hPa 0,0 l/m 0 min 0 min 295 W/m 29,0 km/h (5 Bft) 100,00 %
03.07.2020 16:14 22,1 C 23,9 C 20,6 C 69 % 1017,6 hPa 0,0 l/m 2 min 0 min 439 W/m 19,3 km/h (3 Bft) 97,87 %
03.07.2020 16:16 22,1 C 26,1 C 21,1 C 69 % 1017,6 hPa 0,0 l/m 2 min 0 min 990 W/m 19,3 km/h (3 Bft) 100,00 %
03.07.2020 16:18 22,2 C 26,1 C 21,1 C 70 % 1017,6 hPa 0,0 l/m 2 min 0 min 963 W/m 22,5 km/h (4 Bft) 100,00 %
03.07.2020 16:20 22,2 C 26,1 C 21,1 C 68 % 1017,6 hPa 0,0 l/m 2 min 0 min 851 W/m 16,1 km/h (3 Bft) 100,00 %
03.07.2020 16:22 22,3 C 26,1 C 21,1 C 69 % 1017,6 hPa 0,0 l/m 2 min 0 min 846 W/m 16,1 km/h (3 Bft) 100,00 %
03.07.2020 16:24 22,5 C 25,6 C 21,7 C 68 % 1017,7 hPa 0,0 l/m 2 min 0 min 842 W/m 16,1 km/h (3 Bft) 100,00 %
03.07.2020 16:26 22,6 C 25,0 C 21,7 C 67 % 1017,7 hPa 0,0 l/m 2 min 0 min 866 W/m 29,0 km/h (5 Bft) 100,00 %
03.07.2020 16:28 22,6 C 24,4 C 21,1 C 67 % 1017,6 hPa 0,0 l/m 2 min 0 min 881 W/m 25,7 km/h (4 Bft) 97,87 %
03.07.2020 16:30 22,7 C 26,1 C 21,1 C 68 % 1017,5 hPa 0,0 l/m 2 min 0 min 862 W/m 16,1 km/h (3 Bft) 100,00 %
03.07.2020 16:32 22,8 C 26,7 C 21,1 C 68 % 1017,5 hPa 0,0 l/m 2 min 0 min 818 W/m 9,7 km/h (2 Bft) 100,00 %
03.07.2020 16:34 22,9 C 26,7 C 21,1 C 68 % 1017,4 hPa 0,0 l/m 2 min 0 min 815 W/m 16,1 km/h (3 Bft) 100,00 %
03.07.2020 16:36 23,0 C 26,7 C 21,7 C 67 % 1017,5 hPa 0,0 l/m 2 min 0 min 800 W/m 16,1 km/h (3 Bft) 100,00 %
03.07.2020 16:38 23,1 C 25,6 C 21,7 C 67 % 1017,4 hPa 0,0 l/m 2 min 0 min 770 W/m 12,9 km/h (3 Bft) 97,87 %
03.07.2020 16:40 23,1 C 26,1 C 21,7 C 66 % 1017,5 hPa 0,0 l/m 2 min 0 min 793 W/m 22,5 km/h (4 Bft) 97,87 %
03.07.2020 16:42 23,2 C 25,6 C 21,7 C 65 % 1017,4 hPa 0,0 l/m 2 min 0 min 813 W/m 22,5 km/h (4 Bft) 95,74 %
03.07.2020 16:44 23,2 C 26,1 C 21,7 C 66 % 1017,5 hPa 0,0 l/m 2 min 0 min 806 W/m 22,5 km/h (4 Bft) 97,87 %
03.07.2020 16:46 23,2 C 25,6 C 21,7 C 65 % 1017,4 hPa 0,0 l/m 2 min 0 min 840 W/m 16,1 km/h (3 Bft) 95,74 %
03.07.2020 16:48 23,3 C 23,9 C 21,1 C 65 % 1017,5 hPa 0,0 l/m 0 min 0 min 299 W/m 25,7 km/h (4 Bft) 97,83 %
03.07.2020 16:50 23,2 C 22,8 C 21,1 C 65 % 1017,5 hPa 0,0 l/m 0 min 0 min 206 W/m 29,0 km/h (5 Bft) 97,87 %
03.07.2020 16:52 23,2 C 22,8 C 21,1 C 64 % 1017,5 hPa 0,0 l/m 0 min 0 min 221 W/m 19,3 km/h (3 Bft) 97,87 %
03.07.2020 16:54 23,1 C 22,2 C 20,6 C 65 % 1017,5 hPa 0,0 l/m 0 min 0 min 280 W/m 22,5 km/h (4 Bft) 97,87 %
03.07.2020 16:56 23,1 C 23,9 C 21,1 C 65 % 1017,4 hPa 0,0 l/m 2 min 0 min 358 W/m 22,5 km/h (4 Bft) 97,87 %
03.07.2020 16:58 23,1 C 25,6 C 21,1 C 66 % 1017,4 hPa 0,0 l/m 2 min 0 min 737 W/m 22,5 km/h (4 Bft) 97,83 %
03.07.2020 17:00 23,1 C 26,1 C 21,1 C 65 % 1017,4 hPa 0,0 l/m 2 min 0 min 812 W/m 19,3 km/h (3 Bft) 91,49 %
03.07.2020 17:02 23,1 C 26,1 C 21,7 C 65 % 1017,4 hPa 0,0 l/m 2 min 0 min 754 W/m 22,5 km/h (4 Bft) 95,83 %
03.07.2020 17:04 23,1 C 27,2 C 21,7 C 66 % 1017,4 hPa 0,0 l/m 2 min 0 min 724 W/m 12,9 km/h (3 Bft) 95,74 %
03.07.2020 17:06 23,2 C 26,7 C 21,7 C 66 % 1017,3 hPa 0,0 l/m 2 min 0 min 712 W/m 19,3 km/h (3 Bft) 95,74 %
03.07.2020 17:08 23,3 C 27,2 C 21,7 C 65 % 1017,3 hPa 0,0 l/m 2 min 0 min 714 W/m 9,7 km/h (2 Bft) 95,74 %
03.07.2020 17:10 23,3 C 27,8 C 21,7 C 67 % 1017,3 hPa 0,0 l/m 2 min 0 min 706 W/m 9,7 km/h (2 Bft) 95,65 %
03.07.2020 17:12 23,4 C 25,0 C 21,1 C 65 % 1017,3 hPa 0,0 l/m 2 min 0 min 443 W/m 25,7 km/h (4 Bft) 97,87 %
03.07.2020 17:14 23,4 C 23,9 C 21,1 C 64 % 1017,3 hPa 0,0 l/m 0 min 0 min 180 W/m 19,3 km/h (3 Bft) 97,87 %
03.07.2020 17:16 23,3 C 22,8 C 21,1 C 63 % 1017,4 hPa 0,0 l/m 0 min 0 min 244 W/m 16,1 km/h (3 Bft) 95,74 %
03.07.2020 17:18 23,2 C 22,8 C 21,1 C 64 % 1017,3 hPa 0,0 l/m 0 min 0 min 272 W/m 25,7 km/h (4 Bft) 97,87 %
03.07.2020 17:20 23,2 C 22,2 C 20,6 C 64 % 1017,3 hPa 0,0 l/m 0 min 0 min 201 W/m 12,9 km/h (3 Bft) 97,87 %
03.07.2020 17:22 23,1 C 22,2 C 20,6 C 65 % 1017,2 hPa 0,0 l/m 0 min 0 min 186 W/m 12,9 km/h (3 Bft) 95,65 %
03.07.2020 17:24 23,1 C 22,2 C 20,6 C 65 % 1017,2 hPa 0,0 l/m 0 min 0 min 176 W/m 19,3 km/h (3 Bft) 95,74 %
03.07.2020 17:26 22,9 C 21,7 C 20,6 C 65 % 1017,2 hPa 0,0 l/m 0 min 0 min 165 W/m 29,0 km/h (5 Bft) 93,62 %
03.07.2020 17:28 22,8 C 21,7 C 20,6 C 64 % 1017,3 hPa 0,0 l/m 0 min 0 min 174 W/m 19,3 km/h (3 Bft) 95,74 %
03.07.2020 17:30 22,7 C 22,2 C 20,6 C 64 % 1017,3 hPa 0,0 l/m 0 min 0 min 195 W/m 22,5 km/h (4 Bft) 97,87 %
03.07.2020 17:32 22,7 C 22,2 C 20,6 C 65 % 1017,2 hPa 0,0 l/m 0 min 0 min 227 W/m 12,9 km/h (3 Bft) 95,83 %
03.07.2020 17:34 22,6 C 23,3 C 21,1 C 66 % 1017,2 hPa 0,0 l/m 0 min 0 min 257 W/m 12,9 km/h (3 Bft) 93,48 %
03.07.2020 17:36 22,6 C 23,3 C 21,1 C 66 % 1017,2 hPa 0,0 l/m 2 min 0 min 325 W/m 16,1 km/h (3 Bft) 95,74 %
03.07.2020 17:38 22,6 C 24,4 C 21,1 C 65 % 1017,2 hPa 0,0 l/m 2 min 0 min 470 W/m 25,7 km/h (4 Bft) 93,75 %
03.07.2020 17:40 22,6 C 25,0 C 21,7 C 65 % 1017,2 hPa 0,0 l/m 2 min 0 min 655 W/m 19,3 km/h (3 Bft) 95,74 %
03.07.2020 17:42 22,7 C 23,9 C 21,1 C 64 % 1017,3 hPa 0,0 l/m 2 min 0 min 613 W/m 32,2 km/h (5 Bft) 95,74 %
03.07.2020 17:44 22,7 C 23,9 C 21,1 C 64 % 1017,1 hPa 0,0 l/m 2 min 0 min 612 W/m 32,2 km/h (5 Bft) 93,48 %
03.07.2020 17:46 22,7 C 24,4 C 21,1 C 65 % 1017,2 hPa 0,0 l/m 2 min 0 min 626 W/m 19,3 km/h (3 Bft) 95,74 %
03.07.2020 17:48 22,8 C 25,6 C 21,1 C 65 % 1017,1 hPa 0,0 l/m 2 min 0 min 653 W/m 16,1 km/h (3 Bft) 95,74 %
03.07.2020 17:50 22,8 C 25,6 C 21,7 C 66 % 1017,1 hPa 0,0 l/m 2 min 0 min 633 W/m 16,1 km/h (3 Bft) 95,74 %
03.07.2020 17:52 22,9 C 26,1 C 21,7 C 66 % 1017,1 hPa 0,0 l/m 2 min 0 min 603 W/m 22,5 km/h (4 Bft) 95,74 %
03.07.2020 17:54 23,1 C 26,1 C 21,7 C 66 % 1017,1 hPa 0,0 l/m 2 min 0 min 608 W/m 12,9 km/h (3 Bft) 95,74 %
03.07.2020 17:56 23,1 C 26,1 C 21,7 C 66 % 1017,1 hPa 0,0 l/m 2 min 0 min 622 W/m 19,3 km/h (3 Bft) 95,65 %
03.07.2020 17:58 23,2 C 26,1 C 21,7 C 66 % 1017,1 hPa 0,0 l/m 2 min 0 min 609 W/m 12,9 km/h (3 Bft) 95,74 %
03.07.2020 18:00 23,3 C 25,6 C 21,7 C 65 % 1017,0 hPa 0,0 l/m 2 min 0 min 594 W/m 16,1 km/h (3 Bft) 95,74 %
03.07.2020 18:02 23,3 C 25,6 C 21,7 C 65 % 1017,0 hPa 0,0 l/m 2 min 0 min 575 W/m 16,1 km/h (3 Bft) 95,83 %
03.07.2020 18:04 23,4 C 25,6 C 21,7 C 64 % 1017,1 hPa 0,0 l/m 2 min 0 min 564 W/m 29,0 km/h (5 Bft) 94,29 %
03.07.2020 18:08 23,5 C 24,4 C 21,7 C 62 % 1017,0 hPa 0,0 l/m 4 min 0 min 553 W/m 29,0 km/h (5 Bft) 95,74 %
03.07.2020 18:10 23,5 C 25,0 C 21,7 C 63 % 1017,0 hPa 0,0 l/m 2 min 0 min 544 W/m 22,5 km/h (4 Bft) 95,65 %
03.07.2020 18:12 23,6 C 24,4 C 21,1 C 63 % 1017,0 hPa 0,0 l/m 2 min 0 min 540 W/m 29,0 km/h (5 Bft) 94,92 %
03.07.2020 18:14 23,6 C 23,9 C 21,1 C 62 % 1016,9 hPa 0,0 l/m 2 min 0 min 540 W/m 22,5 km/h (4 Bft) 100,00 %
03.07.2020 18:16 23,6 C 23,9 C 21,1 C 62 % 1016,9 hPa 0,0 l/m 2 min 0 min 540 W/m 16,1 km/h (3 Bft) 96,61 %
03.07.2020 18:18 23,6 C 24,4 C 21,1 C 64 % 1016,9 hPa 0,0 l/m 2 min 0 min 552 W/m 19,3 km/h (3 Bft) 100,00 %
03.07.2020 18:20 23,5 C 23,3 C 21,1 C 62 % 1016,9 hPa 0,0 l/m 2 min 0 min 421 W/m 22,5 km/h (4 Bft) 100,00 %
03.07.2020 18:22 23,4 C 22,8 C 21,1 C 62 % 1016,9 hPa 0,0 l/m 0 min 0 min 135 W/m 16,1 km/h (3 Bft) 97,87 %
03.07.2020 18:24 23,4 C 22,8 C 21,1 C 62 % 1017,0 hPa 0,0 l/m 0 min 0 min 151 W/m 22,5 km/h (4 Bft) 100,00 %
03.07.2020 18:26 23,3 C 22,2 C 20,6 C 62 % 1017,0 hPa 0,0 l/m 0 min 0 min 225 W/m 19,3 km/h (3 Bft) 100,00 %
03.07.2020 18:28 23,3 C 23,3 C 20,6 C 63 % 1016,9 hPa 0,0 l/m 0 min 0 min 142 W/m 16,1 km/h (3 Bft) 100,00 %
03.07.2020 18:30 23,2 C 23,3 C 21,1 C 63 % 1016,9 hPa 0,0 l/m 2 min 0 min 484 W/m 16,1 km/h (3 Bft) 100,00 %
03.07.2020 18:32 23,2 C 23,9 C 21,1 C 64 % 1017,0 hPa 0,0 l/m 2 min 0 min 489 W/m 19,3 km/h (3 Bft) 100,00 %
03.07.2020 18:34 23,2 C 23,9 C 21,1 C 64 % 1017,1 hPa 0,0 l/m 2 min 0 min 484 W/m 19,3 km/h (3 Bft) 100,00 %
03.07.2020 18:36 23,2 C 23,9 C 21,1 C 63 % 1016,9 hPa 0,0 l/m 2 min 0 min 469 W/m 19,3 km/h (3 Bft) 100,00 %
03.07.2020 18:38 23,2 C 23,9 C 21,1 C 63 % 1016,9 hPa 0,0 l/m 2 min 0 min 476 W/m 25,7 km/h (4 Bft) 100,00 %
03.07.2020 18:40 23,2 C 22,8 C 21,1 C 64 % 1017,0 hPa 0,0 l/m 2 min 0 min 457 W/m 19,3 km/h (3 Bft) 100,00 %
03.07.2020 18:42 23,1 C 22,2 C 21,1 C 63 % 1016,9 hPa 0,0 l/m 0 min 0 min 132 W/m 16,1 km/h (3 Bft) 97,87 %
03.07.2020 18:44 23,1 C 22,2 C 21,1 C 63 % 1016,9 hPa 0,0 l/m 0 min 0 min 116 W/m 22,5 km/h (4 Bft) 97,87 %
03.07.2020 18:46 23,1 C 22,2 C 20,6 C 63 % 1016,8 hPa 0,0 l/m 0 min 0 min 107 W/m 19,3 km/h (3 Bft) 100,00 %
03.07.2020 18:48 23,0 C 22,2 C 20,6 C 64 % 1016,8 hPa 0,0 l/m 2 min 0 min 254 W/m 22,5 km/h (4 Bft) 100,00 %
03.07.2020 18:50 22,9 C 22,2 C 20,6 C 64 % 1016,8 hPa 0,0 l/m 2 min 0 min 359 W/m 16,1 km/h (3 Bft) 100,00 %
03.07.2020 18:52 22,9 C 22,8 C 20,6 C 64 % 1016,9 hPa 0,0 l/m 2 min 0 min 361 W/m 19,3 km/h (3 Bft) 100,00 %
03.07.2020 18:54 22,8 C 22,2 C 21,1 C 64 % 1016,9 hPa 0,0 l/m 2 min 0 min 325 W/m 19,3 km/h (3 Bft) 100,00 %
03.07.2020 18:56 22,8 C 22,2 C 21,1 C 64 % 1016,8 hPa 0,0 l/m 2 min 0 min 327 W/m 16,1 km/h (3 Bft) 100,00 %
03.07.2020 18:58 22,8 C 22,2 C 21,1 C 64 % 1016,8 hPa 0,0 l/m 2 min 0 min 278 W/m 16,1 km/h (3 Bft) 100,00 %
03.07.2020 19:00 22,7 C 22,2 C 21,1 C 63 % 1016,9 hPa 0,0 l/m 2 min 0 min 305 W/m 19,3 km/h (3 Bft) 100,00 %
03.07.2020 19:02 22,7 C 22,8 C 21,1 C 63 % 1016,8 hPa 0,0 l/m 2 min 0 min 313 W/m 16,1 km/h (3 Bft) 100,00 %
03.07.2020 19:04 22,7 C 22,2 C 20,6 C 63 % 1016,8 hPa 0,0 l/m 2 min 0 min 272 W/m 22,5 km/h (4 Bft) 100,00 %
03.07.2020 19:06 22,7 C 22,2 C 20,6 C 63 % 1016,8 hPa 0,0 l/m 2 min 0 min 262 W/m 25,7 km/h (4 Bft) 97,87 %
03.07.2020 19:08 22,7 C 22,2 C 20,6 C 64 % 1016,9 hPa 0,0 l/m 2 min 0 min 289 W/m 19,3 km/h (3 Bft) 97,83 %
03.07.2020 19:10 22,6 C 22,2 C 20,6 C 64 % 1016,7 hPa 0,0 l/m 2 min 0 min 289 W/m 19,3 km/h (3 Bft) 97,87 %
03.07.2020 19:12 22,6 C 22,2 C 20,6 C 64 % 1016,7 hPa 0,0 l/m 2 min 0 min 294 W/m 19,3 km/h (3 Bft) 93,62 %
03.07.2020 19:14 22,6 C 22,2 C 20,6 C 64 % 1016,7 hPa 0,0 l/m 2 min 0 min 315 W/m 16,1 km/h (3 Bft) 97,87 %
03.07.2020 19:16 22,6 C 22,2 C 20,6 C 64 % 1016,7 hPa 0,0 l/m 2 min 0 min 327 W/m 12,9 km/h (3 Bft) 97,87 %
03.07.2020 19:18 22,6 C 22,2 C 20,6 C 65 % 1016,8 hPa 0,0 l/m 2 min 0 min 332 W/m 32,2 km/h (5 Bft) 97,87 %
03.07.2020 19:20 22,6 C 22,2 C 20,6 C 65 % 1016,8 hPa 0,0 l/m 2 min 0 min 326 W/m 25,7 km/h (4 Bft) 95,65 %
03.07.2020 19:22 22,6 C 22,2 C 20,6 C 64 % 1016,8 hPa 0,0 l/m 2 min 0 min 327 W/m 25,7 km/h (4 Bft) 97,87 %
03.07.2020 19:24 22,6 C 22,2 C 20,6 C 64 % 1016,8 hPa 0,0 l/m 2 min 0 min 322 W/m 19,3 km/h (3 Bft) 97,87 %
03.07.2020 19:26 22,6 C 22,2 C 20,6 C 64 % 1016,8 hPa 0,0 l/m 2 min 0 min 285 W/m 19,3 km/h (3 Bft) 97,87 %
03.07.2020 19:28 22,6 C 22,2 C 20,6 C 64 % 1016,8 hPa 0,0 l/m 2 min 0 min 292 W/m 19,3 km/h (3 Bft) 95,74 %
03.07.2020 19:30 22,6 C 22,2 C 20,6 C 63 % 1016,8 hPa 0,0 l/m 2 min 0 min 312 W/m 16,1 km/h (3 Bft) 97,87 %
03.07.2020 19:32 22,6 C 22,2 C 20,6 C 64 % 1016,7 hPa 0,0 l/m 2 min 0 min 308 W/m 16,1 km/h (3 Bft) 80,85 %
03.07.2020 19:34 22,6 C 22,2 C 20,6 C 64 % 1016,7 hPa 0,0 l/m 2 min 0 min 239 W/m 19,3 km/h (3 Bft) 95,74 %
03.07.2020 19:36 22,6 C 21,7 C 20,6 C 63 % 1016,9 hPa 0,0 l/m 0 min 0 min 95 W/m 16,1 km/h (3 Bft) 93,62 %
03.07.2020 19:38 22,5 C 21,1 C 20,6 C 63 % 1016,8 hPa 0,0 l/m 0 min 0 min 80 W/m 41,8 km/h (6 Bft) 95,74 %
03.07.2020 19:40 22,4 C 21,1 C 20,6 C 64 % 1016,9 hPa 0,0 l/m 0 min 0 min 89 W/m 12,9 km/h (3 Bft) 97,87 %
03.07.2020 19:42 22,4 C 21,1 C 20,0 C 64 % 1016,9 hPa 0,0 l/m 0 min 0 min 107 W/m 12,9 km/h (3 Bft) 97,87 %
03.07.2020 19:44 22,4 C 21,1 C 20,0 C 64 % 1016,9 hPa 0,0 l/m 2 min 0 min 202 W/m 19,3 km/h (3 Bft) 95,74 %
03.07.2020 19:46 22,4 C 21,1 C 20,0 C 64 % 1016,9 hPa 0,0 l/m 2 min 0 min 149 W/m 16,1 km/h (3 Bft) 97,87 %
03.07.2020 19:48 22,3 C 21,1 C 20,0 C 64 % 1016,9 hPa 0,0 l/m 2 min 0 min 172 W/m 19,3 km/h (3 Bft) 97,87 %
03.07.2020 19:50 22,2 C 21,1 C 20,0 C 63 % 1017,0 hPa 0,0 l/m 2 min 0 min 173 W/m 22,5 km/h (4 Bft) 95,74 %
03.07.2020 19:52 22,2 C 21,1 C 20,0 C 62 % 1017,0 hPa 0,0 l/m 0 min 0 min 104 W/m 22,5 km/h (4 Bft) 100,00 %
03.07.2020 19:54 22,1 C 20,6 C 20,0 C 62 % 1017,1 hPa 0,0 l/m 0 min 0 min 81 W/m 25,7 km/h (4 Bft) 100,00 %
03.07.2020 19:56 22,0 C 20,6 C 20,0 C 63 % 1017,1 hPa 0,0 l/m 0 min 0 min 73 W/m 22,5 km/h (4 Bft) 100,00 %
03.07.2020 19:58 21,9 C 20,6 C 20,0 C 64 % 1017,0 hPa 0,0 l/m 0 min 0 min 66 W/m 9,7 km/h (2 Bft) 97,87 %
03.07.2020 20:00 21,8 C 20,6 C 20,0 C 64 % 1017,0 hPa 0,0 l/m 0 min 0 min 65 W/m 16,1 km/h (3 Bft) 97,87 %
03.07.2020 20:02 21,8 C 20,6 C 20,0 C 64 % 1017,0 hPa 0,0 l/m 0 min 0 min 65 W/m 16,1 km/h (3 Bft) 100,00 %
03.07.2020 20:04 21,7 C 20,6 C 20,0 C 65 % 1017,0 hPa 0,0 l/m 0 min 0 min 64 W/m 22,5 km/h (4 Bft) 100,00 %
03.07.2020 20:06 21,7 C 20,6 C 20,0 C 65 % 1017,0 hPa 0,0 l/m 0 min 0 min 62 W/m 16,1 km/h (3 Bft) 100,00 %
03.07.2020 20:08 21,6 C 20,6 C 19,4 C 65 % 1016,9 hPa 0,0 l/m 0 min 0 min 60 W/m 12,9 km/h (3 Bft) 100,00 %
03.07.2020 20:10 21,6 C 20,6 C 20,0 C 65 % 1016,9 hPa 0,0 l/m 0 min 0 min 57 W/m 19,3 km/h (3 Bft) 100,00 %
03.07.2020 20:12 21,6 C 20,6 C 19,4 C 66 % 1017,0 hPa 0,0 l/m 0 min 0 min 54 W/m 12,9 km/h (3 Bft) 100,00 %
03.07.2020 20:14 21,6 C 20,6 C 19,4 C 66 % 1016,9 hPa 0,0 l/m 0 min 0 min 54 W/m 29,0 km/h (5 Bft) 97,87 %
03.07.2020 20:16 21,5 C 20,6 C 19,4 C 65 % 1017,1 hPa 0,0 l/m 0 min 0 min 53 W/m 22,5 km/h (4 Bft) 97,87 %
03.07.2020 20:18 21,4 C 20,0 C 19,4 C 65 % 1016,9 hPa 0,0 l/m 0 min 0 min 50 W/m 12,9 km/h (3 Bft) 100,00 %
03.07.2020 20:20 21,4 C 20,0 C 19,4 C 65 % 1016,9 hPa 0,0 l/m 0 min 0 min 49 W/m 19,3 km/h (3 Bft) 97,87 %
03.07.2020 20:22 21,4 C 20,0 C 19,4 C 66 % 1016,9 hPa 0,0 l/m 0 min 0 min 47 W/m 22,5 km/h (4 Bft) 100,00 %
03.07.2020 20:24 21,3 C 20,0 C 19,4 C 66 % 1016,9 hPa 0,0 l/m 0 min 0 min 46 W/m 12,9 km/h (3 Bft) 95,74 %
03.07.2020 20:26 21,3 C 20,0 C 19,4 C 66 % 1016,9 hPa 0,0 l/m 0 min 0 min 45 W/m 22,5 km/h (4 Bft) 95,74 %
03.07.2020 20:28 21,3 C 20,0 C 19,4 C 66 % 1016,9 hPa 0,0 l/m 0 min 0 min 42 W/m 19,3 km/h (3 Bft) 97,87 %
03.07.2020 20:30 21,2 C 20,0 C 19,4 C 66 % 1016,9 hPa 0,0 l/m 0 min 0 min 39 W/m 12,9 km/h (3 Bft) 95,65 %
03.07.2020 20:32 21,2 C 20,0 C 19,4 C 66 % 1016,9 hPa 0,0 l/m 0 min 0 min 39 W/m 12,9 km/h (3 Bft) 93,62 %
03.07.2020 20:34 21,1 C 20,0 C 19,4 C 66 % 1016,9 hPa 0,0 l/m 0 min 0 min 38 W/m 16,1 km/h (3 Bft) 95,74 %
03.07.2020 20:36 21,1 C 20,0 C 19,4 C 67 % 1016,9 hPa 0,0 l/m 0 min 0 min 37 W/m 22,5 km/h (4 Bft) 97,87 %
03.07.2020 20:38 21,1 C 20,0 C 19,4 C 67 % 1016,9 hPa 0,0 l/m 0 min 0 min 36 W/m 16,1 km/h (3 Bft) 93,62 %
03.07.2020 20:40 21,1 C 20,0 C 19,4 C 67 % 1016,9 hPa 0,0 l/m 0 min 0 min 32 W/m 9,7 km/h (2 Bft) 95,74 %
03.07.2020 20:42 21,0 C 19,4 C 19,4 C 67 % 1016,9 hPa 0,0 l/m 0 min 0 min 30 W/m 16,1 km/h (3 Bft) 93,48 %
03.07.2020 20:44 21,0 C 19,4 C 18,9 C 68 % 1016,9 hPa 0,0 l/m 0 min 0 min 27 W/m 12,9 km/h (3 Bft) 95,74 %
03.07.2020 20:46 20,9 C 19,4 C 18,9 C 68 % 1017,0 hPa 0,0 l/m 0 min 0 min 25 W/m 6,4 km/h (2 Bft) 95,74 %
03.07.2020 20:48 20,9 C 19,4 C 18,9 C 68 % 1016,9 hPa 0,0 l/m 0 min 0 min 23 W/m 6,4 km/h (2 Bft) 93,62 %
03.07.2020 20:50 20,9 C 19,4 C 18,9 C 69 % 1017,0 hPa 0,0 l/m 0 min 0 min 21 W/m 3,2 km/h (1 Bft) 95,74 %
03.07.2020 20:52 20,8 C 19,4 C 18,9 C 69 % 1017,0 hPa 0,0 l/m 0 min 0 min 21 W/m 9,7 km/h (2 Bft) 93,62 %
03.07.2020 20:54 20,8 C 18,9 C 18,9 C 69 % 1017,0 hPa 0,0 l/m 0 min 0 min 20 W/m 3,2 km/h (1 Bft) 95,65 %
03.07.2020 20:56 20,8 C 18,9 C 18,9 C 69 % 1017,0 hPa 0,0 l/m 0 min 0 min 19 W/m 6,4 km/h (2 Bft) 91,49 %
03.07.2020 20:58 20,7 C 18,9 C 18,3 C 69 % 1017,1 hPa 0,0 l/m 0 min 0 min 18 W/m 6,4 km/h (2 Bft) 95,74 %
03.07.2020 21:00 20,7 C 18,9 C 18,3 C 70 % 1017,1 hPa 0,0 l/m 0 min 0 min 17 W/m 16,1 km/h (3 Bft) 95,74 %
03.07.2020 21:02 20,7 C 18,9 C 18,3 C 70 % 1017,1 hPa 0,0 l/m 0 min 0 min 16 W/m 12,9 km/h (3 Bft) 91,49 %
03.07.2020 21:04 20,6 C 18,9 C 18,3 C 70 % 1017,1 hPa 0,0 l/m 0 min 0 min 16 W/m 16,1 km/h (3 Bft) 93,62 %
03.07.2020 21:06 20,6 C 18,9 C 18,3 C 70 % 1017,1 hPa 0,0 l/m 0 min 0 min 14 W/m 12,9 km/h (3 Bft) 95,65 %
03.07.2020 21:08 20,5 C 18,9 C 18,3 C 70 % 1017,1 hPa 0,0 l/m 0 min 0 min 14 W/m 12,9 km/h (3 Bft) 95,74 %
03.07.2020 21:10 20,4 C 18,9 C 18,3 C 70 % 1017,1 hPa 0,0 l/m 0 min 0 min 14 W/m 12,9 km/h (3 Bft) 95,74 %
03.07.2020 21:12 20,4 C 18,9 C 18,3 C 71 % 1017,1 hPa 0,0 l/m 0 min 0 min 14 W/m 12,9 km/h (3 Bft) 95,74 %
03.07.2020 21:14 20,3 C 18,9 C 18,3 C 71 % 1017,1 hPa 0,0 l/m 0 min 0 min 14 W/m 12,9 km/h (3 Bft) 95,74 %
03.07.2020 21:16 20,3 C 18,9 C 18,3 C 71 % 1017,1 hPa 0,0 l/m 0 min 0 min 14 W/m 12,9 km/h (3 Bft) 95,74 %
03.07.2020 21:18 20,2 C 18,9 C 18,3 C 71 % 1017,2 hPa 0,0 l/m 0 min 0 min 13 W/m 9,7 km/h (2 Bft) 95,65 %
03.07.2020 21:20 20,2 C 18,9 C 18,3 C 71 % 1017,2 hPa 0,0 l/m 0 min 0 min 12 W/m 6,4 km/h (2 Bft) 95,74 %
03.07.2020 21:22 20,2 C 18,9 C 18,3 C 71 % 1017,1 hPa 0,0 l/m 0 min 0 min 12 W/m 16,1 km/h (3 Bft) 97,87 %
03.07.2020 21:24 20,1 C 18,3 C 18,3 C 71 % 1017,1 hPa 0,0 l/m 0 min 0 min 12 W/m 9,7 km/h (2 Bft) 97,87 %
03.07.2020 21:26 20,1 C 18,3 C 18,3 C 71 % 1017,2 hPa 0,0 l/m 0 min 0 min 11 W/m 3,2 km/h (1 Bft) 97,87 %
03.07.2020 21:28 20,1 C 18,3 C 17,8 C 71 % 1017,1 hPa 0,0 l/m 0 min 0 min 11 W/m 12,9 km/h (3 Bft) 100,00 %
03.07.2020 21:30 20,1 C 18,3 C 17,8 C 72 % 1017,2 hPa 0,0 l/m 0 min 0 min 11 W/m 6,4 km/h (2 Bft) 100,00 %
03.07.2020 21:32 20,0 C 18,3 C 17,8 C 72 % 1017,2 hPa 0,0 l/m 0 min 0 min 11 W/m 6,4 km/h (2 Bft) 100,00 %
03.07.2020 21:34 19,9 C 18,3 C 17,8 C 72 % 1017,2 hPa 0,0 l/m 0 min 0 min 9 W/m 12,9 km/h (3 Bft) 97,87 %
03.07.2020 21:36 19,9 C 18,3 C 17,8 C 72 % 1017,2 hPa 0,0 l/m 0 min 0 min 9 W/m 9,7 km/h (2 Bft) 97,87 %
03.07.2020 21:38 19,9 C 18,3 C 17,8 C 72 % 1017,2 hPa 0,0 l/m 0 min 0 min 9 W/m 6,4 km/h (2 Bft) 97,87 %
03.07.2020 21:40 19,8 C 18,3 C 17,8 C 72 % 1017,3 hPa 0,0 l/m 0 min 0 min 7 W/m 12,9 km/h (3 Bft) 97,83 %
03.07.2020 21:42 19,8 C 18,3 C 17,8 C 72 % 1017,3 hPa 0,0 l/m 0 min 0 min 7 W/m 6,4 km/h (2 Bft) 100,00 %
03.07.2020 21:44 19,8 C 18,3 C 17,8 C 72 % 1017,3 hPa 0,0 l/m 0 min 0 min 7 W/m 9,7 km/h (2 Bft) 97,87 %
03.07.2020 21:46 19,7 C 17,8 C 17,8 C 73 % 1017,3 hPa 0,0 l/m 0 min 0 min 5 W/m 6,4 km/h (2 Bft) 100,00 %
03.07.2020 21:48 19,7 C 17,8 C 17,8 C 73 % 1017,3 hPa 0,0 l/m 0 min 0 min 5 W/m 6,4 km/h (2 Bft) 97,87 %
03.07.2020 21:50 19,6 C 17,8 C 17,8 C 73 % 1017,3 hPa 0,0 l/m 0 min 0 min 1 W/m 12,9 km/h (3 Bft) 97,87 %
03.07.2020 21:52 19,6 C 17,8 C 17,8 C 73 % 1017,3 hPa 0,0 l/m 0 min 0 min 0 W/m 12,9 km/h (3 Bft) 86,96 %
03.07.2020 21:54 19,6 C 17,8 C 17,8 C 73 % 1017,4 hPa 0,0 l/m 0 min 0 min 0 W/m 6,4 km/h (2 Bft) 95,74 %
03.07.2020 21:56 19,5 C 17,8 C 17,8 C 73 % 1017,4 hPa 0,0 l/m 0 min 0 min 0 W/m 6,4 km/h (2 Bft) 95,74 %
03.07.2020 21:58 19,4 C 17,8 C 17,8 C 73 % 1017,4 hPa 0,0 l/m 0 min 0 min 0 W/m 6,4 km/h (2 Bft) 97,87 %
03.07.2020 22:00 19,4 C 17,8 C 17,2 C 73 % 1017,4 hPa 0,0 l/m 0 min 0 min 0 W/m 3,2 km/h (1 Bft) 97,87 %
03.07.2020 22:02 19,4 C 17,8 C 17,2 C 73 % 1017,4 hPa 0,0 l/m 0 min 0 min 0 W/m 6,4 km/h (2 Bft) 95,74 %
03.07.2020 22:04 19,3 C 17,8 C 17,2 C 73 % 1017,4 hPa 0,0 l/m 0 min 0 min 0 W/m 9,7 km/h (2 Bft) 97,83 %
03.07.2020 22:06 19,3 C 17,8 C 17,2 C 73 % 1017,5 hPa 0,0 l/m 0 min 0 min 0 W/m 6,4 km/h (2 Bft) 97,87 %
03.07.2020 22:08 19,2 C 17,2 C 17,2 C 73 % 1017,4 hPa 0,0 l/m 0 min 0 min 0 W/m 6,4 km/h (2 Bft) 97,87 %
03.07.2020 22:10 19,2 C 17,2 C 17,2 C 74 % 1017,4 hPa 0,0 l/m 0 min 0 min 0 W/m 3,2 km/h (1 Bft) 97,87 %
03.07.2020 22:12 19,2 C 17,2 C 17,2 C 74 % 1017,4 hPa 0,0 l/m 0 min 0 min 0 W/m 0,0 km/h (0 Bft) 97,87 %
03.07.2020 22:14 19,1 C 17,2 C 17,2 C 74 % 1017,4 hPa 0,0 l/m 0 min 0 min 0 W/m 0,0 km/h (0 Bft) 95,74 %
03.07.2020 22:16 19,1 C 17,2 C 17,2 C 74 % 1017,4 hPa 0,0 l/m 0 min 0 min 0 W/m 0,0 km/h (0 Bft) 98,08 %
03.07.2020 22:18 19,1 C 17,2 C 17,2 C 74 % 1017,5 hPa 0,0 l/m 0 min 0 min 0 W/m 0,0 km/h (0 Bft) 97,56 %
03.07.2020 22:20 19,0 C 17,8 C 17,2 C 74 % 1017,5 hPa 0,0 l/m 0 min 0 min 0 W/m 16,1 km/h (3 Bft) 97,87 %
03.07.2020 22:22 19,0 C 17,8 C 17,2 C 74 % 1017,5 hPa 0,0 l/m 0 min 0 min 0 W/m 6,4 km/h (2 Bft) 97,87 %
03.07.2020 22:24 18,9 C 17,8 C 17,2 C 74 % 1017,5 hPa 0,0 l/m 0 min 0 min 0 W/m 12,9 km/h (3 Bft) 95,74 %
03.07.2020 22:26 18,9 C 17,8 C 17,2 C 74 % 1017,5 hPa 0,0 l/m 0 min 0 min 0 W/m 6,4 km/h (2 Bft) 97,87 %
03.07.2020 22:28 18,9 C 17,2 C 17,2 C 74 % 1017,4 hPa 0,0 l/m 0 min 0 min 0 W/m 6,4 km/h (2 Bft) 97,83 %
03.07.2020 22:30 18,8 C 17,2 C 17,2 C 74 % 1017,4 hPa 0,0 l/m 0 min 0 min 0 W/m 3,2 km/h (1 Bft) 95,74 %
03.07.2020 22:32 18,8 C 17,2 C 17,2 C 74 % 1017,4 hPa 0,0 l/m 0 min 0 min 0 W/m 3,2 km/h (1 Bft) 100,00 %
03.07.2020 22:34 18,8 C 17,2 C 17,2 C 75 % 1017,4 hPa 0,0 l/m 0 min 0 min 0 W/m 12,9 km/h (3 Bft) 100,00 %
03.07.2020 22:36 18,8 C 17,2 C 17,2 C 75 % 1017,4 hPa 0,0 l/m 0 min 0 min 0 W/m 6,4 km/h (2 Bft) 100,00 %
03.07.2020 22:38 18,7 C 17,2 C 17,2 C 75 % 1017,4 hPa 0,0 l/m 0 min 0 min 0 W/m 16,1 km/h (3 Bft) 100,00 %
03.07.2020 22:40 18,7 C 17,2 C 17,2 C 75 % 1017,5 hPa 0,0 l/m 0 min 0 min 0 W/m 6,4 km/h (2 Bft) 97,87 %
03.07.2020 22:42 18,7 C 17,2 C 17,2 C 75 % 1017,5 hPa 0,0 l/m 0 min 0 min 0 W/m 12,9 km/h (3 Bft) 100,00 %
03.07.2020 22:44 18,7 C 17,2 C 17,2 C 75 % 1017,5 hPa 0,0 l/m 0 min 0 min 0 W/m 16,1 km/h (3 Bft) 100,00 %
03.07.2020 22:46 18,7 C 17,2 C 17,2 C 75 % 1017,5 hPa 0,0 l/m 0 min 0 min 0 W/m 16,1 km/h (3 Bft) 100,00 %
03.07.2020 22:48 18,6 C 17,2 C 17,2 C 75 % 1017,5 hPa 0,0 l/m 0 min 0 min 0 W/m 16,1 km/h (3 Bft) 97,83 %
03.07.2020 22:50 18,6 C 17,2 C 17,2 C 75 % 1017,5 hPa 0,0 l/m 0 min 0 min 0 W/m 6,4 km/h (2 Bft) 100,00 %
03.07.2020 22:52 18,6 C 17,2 C 17,2 C 75 % 1017,5 hPa 0,0 l/m 0 min 0 min 0 W/m 19,3 km/h (3 Bft) 100,00 %
03.07.2020 22:54 18,6 C 17,2 C 16,7 C 75 % 1017,5 hPa 0,0 l/m 0 min 0 min 0 W/m 12,9 km/h (3 Bft) 100,00 %
03.07.2020 22:56 18,6 C 17,2 C 16,7 C 75 % 1017,5 hPa 0,0 l/m 0 min 0 min 0 W/m 16,1 km/h (3 Bft) 100,00 %
03.07.2020 22:58 18,6 C 17,2 C 16,7 C 75 % 1017,5 hPa 0,0 l/m 0 min 0 min 0 W/m 16,1 km/h (3 Bft) 100,00 %
03.07.2020 23:00 18,5 C 17,2 C 16,7 C 75 % 1017,5 hPa 0,0 l/m 0 min 0 min 0 W/m 6,4 km/h (2 Bft) 97,83 %
03.07.2020 23:02 18,5 C 17,2 C 16,7 C 76 % 1017,5 hPa 0,0 l/m 0 min 0 min 0 W/m 16,1 km/h (3 Bft) 97,87 %
03.07.2020 23:04 18,4 C 17,2 C 16,7 C 76 % 1017,6 hPa 0,0 l/m 0 min 0 min 0 W/m 12,9 km/h (3 Bft) 100,00 %
03.07.2020 23:06 18,4 C 17,2 C 16,7 C 76 % 1017,6 hPa 0,0 l/m 0 min 0 min 0 W/m 12,9 km/h (3 Bft) 97,87 %
03.07.2020 23:08 18,4 C 17,2 C 16,7 C 76 % 1017,5 hPa 0,0 l/m 0 min 0 min 0 W/m 6,4 km/h (2 Bft) 100,00 %
03.07.2020 23:10 18,4 C 16,7 C 16,7 C 76 % 1017,6 hPa 0,0 l/m 0 min 0 min 0 W/m 0,0 km/h (0 Bft) 97,83 %
03.07.2020 23:12 18,4 C 16,7 C 16,7 C 76 % 1017,6 hPa 0,0 l/m 0 min 0 min 0 W/m 6,4 km/h (2 Bft) 97,87 %
03.07.2020 23:14 18,3 C 16,7 C 16,7 C 76 % 1017,6 hPa 0,0 l/m 0 min 0 min 0 W/m 0,0 km/h (0 Bft) 100,00 %
03.07.2020 23:16 18,3 C 16,7 C 16,7 C 76 % 1017,6 hPa 0,0 l/m 0 min 0 min 0 W/m 0,0 km/h (0 Bft) 100,00 %
03.07.2020 23:18 18,3 C 16,7 C 16,7 C 76 % 1017,6 hPa 0,0 l/m 0 min 0 min 0 W/m 0,0 km/h (0 Bft) 97,87 %
03.07.2020 23:20 18,3 C 16,7 C 16,7 C 77 % 1017,6 hPa 0,0 l/m 0 min 0 min 0 W/m 0,0 km/h (0 Bft) 97,87 %
03.07.2020 23:22 18,2 C 16,1 C 16,7 C 77 % 1017,6 hPa 0,0 l/m 0 min 0 min 0 W/m 0,0 km/h (0 Bft) 100,00 %
03.07.2020 23:24 18,2 C 16,1 C 16,1 C 77 % 1017,6 hPa 0,0 l/m 0 min 0 min 0 W/m 0,0 km/h (0 Bft) 100,00 %
03.07.2020 23:26 18,2 C 16,1 C 16,1 C 77 % 1017,6 hPa 0,0 l/m 0 min 0 min 0 W/m 3,2 km/h (1 Bft) 97,87 %
03.07.2020 23:28 18,2 C 16,1 C 16,1 C 77 % 1017,7 hPa 0,0 l/m 0 min 0 min 0 W/m 0,0 km/h (0 Bft) 95,74 %
03.07.2020 23:30 18,1 C 16,1 C 16,1 C 77 % 1017,7 hPa 0,0 l/m 0 min 0 min 0 W/m 3,2 km/h (1 Bft) 95,74 %
03.07.2020 23:32 18,1 C 16,1 C 16,1 C 77 % 1017,7 hPa 0,0 l/m 0 min 0 min 0 W/m 6,4 km/h (2 Bft) 95,83 %
03.07.2020 23:34 18,0 C 16,1 C 16,1 C 77 % 1017,7 hPa 0,0 l/m 0 min 0 min 0 W/m 9,7 km/h (2 Bft) 97,83 %
03.07.2020 23:36 18,0 C 16,1 C 16,1 C 78 % 1017,7 hPa 0,0 l/m 0 min 0 min 0 W/m 0,0 km/h (0 Bft) 97,87 %
03.07.2020 23:38 17,9 C 16,1 C 16,1 C 78 % 1017,7 hPa 0,0 l/m 0 min 0 min 0 W/m 0,0 km/h (0 Bft) 97,87 %
03.07.2020 23:40 17,9 C 16,1 C 16,1 C 78 % 1017,7 hPa 0,0 l/m 0 min 0 min 0 W/m 6,4 km/h (2 Bft) 97,87 %
03.07.2020 23:42 17,8 C 16,1 C 16,1 C 78 % 1017,7 hPa 0,0 l/m 0 min 0 min 0 W/m 0,0 km/h (0 Bft) 95,74 %
03.07.2020 23:44 17,8 C 16,1 C 16,1 C 78 % 1017,7 hPa 0,0 l/m 0 min 0 min 0 W/m 3,2 km/h (1 Bft) 97,87 %
03.07.2020 23:46 17,8 C 16,1 C 16,1 C 79 % 1017,7 hPa 0,0 l/m 0 min 0 min 0 W/m 6,4 km/h (2 Bft) 97,83 %
03.07.2020 23:48 17,7 C 16,1 C 16,1 C 79 % 1017,7 hPa 0,0 l/m 0 min 0 min 0 W/m 6,4 km/h (2 Bft) 97,87 %
03.07.2020 23:50 17,7 C 15,6 C 15,6 C 79 % 1017,8 hPa 0,0 l/m 0 min 0 min 0 W/m 0,0 km/h (0 Bft) 95,74 %
03.07.2020 23:52 17,7 C 15,6 C 15,6 C 79 % 1017,8 hPa 0,0 l/m 0 min 0 min 0 W/m 0,0 km/h (0 Bft) 97,87 %
03.07.2020 23:54 17,6 C 15,6 C 15,6 C 79 % 1017,7 hPa 0,0 l/m 0 min 0 min 0 W/m 0,0 km/h (0 Bft) 97,87 %
03.07.2020 23:56 17,6 C 15,6 C 15,6 C 79 % 1017,7 hPa 0,0 l/m 0 min 0 min 0 W/m 0,0 km/h (0 Bft) 95,74 %
03.07.2020 23:58 17,6 C 15,6 C 15,6 C 79 % 1017,7 hPa 0,0 l/m 0 min 0 min 0 W/m 3,2 km/h (1 Bft) 93,48 %
_ Min-Zeit 04:36 03:46 03:50 18:08 00:00 - - - - 00:00 03:40
Minimum _ 12,7 C 11,7 C 11,7 C 62 % 1015,0 hPa - - - - 0,0 km/h (0 Bft) 56,52 %
_ Max-Zeit 18:12 17:10 16:24 02:14 13:18 00:00 18:08 00:00 15:04 19:38 00:00
Maximum _ 23,6 C 27,8 C 21,7 C 94 % 1018,7 hPa 0,0 l/m 4 min 0 min 1053 W/m 41,8 km/h
SO (6 Bft)
100,00 %
Durchschnitt _ 17,4 C 17,4 C 16,3 C 82 % 1017,2 hPa #0,0 l/m #4:04 h #0 min. 257 W/m 12,5 km/h (3 Bft) 97,10 %
© 2020 W. Hausmann